<?xml version="1.0" encoding="UTF-8"?>
<gpx version="1.0" creator="GPSBabel - https://www.gpsbabel.org" xmlns="http://www.topografix.com/GPX/1/0">
  <time>2021-11-17T20:47:29.123Z</time>
  <bounds minlat="35.852137430" minlon="-106.506134820" maxlat="35.857487440" maxlon="-106.490914600"/>
  <trk>
    <name>Valles Caldera Snowshoe Hike.Pat.2019-02-12</name>
    <trkseg>
      <trkpt lat="35.854479520" lon="-106.492455070">
        <ele>2581.000</ele>
        <time>2019-02-12T17:56:25Z</time>
        <name>WPT</name>
      </trkpt>
      <trkpt lat="35.854511180" lon="-106.492477110">
        <ele>2583.000</ele>
        <time>2019-02-12T17:56:26Z</time>
        <name>WPT.1</name>
      </trkpt>
      <trkpt lat="35.854471630" lon="-106.492487190">
        <ele>2579.000</ele>
        <time>2019-02-12T17:58:49Z</time>
        <name>WPT.2</name>
      </trkpt>
      <trkpt lat="35.854446440" lon="-106.492520150">
        <ele>2579.000</ele>
        <time>2019-02-12T17:58:53Z</time>
        <name>WPT.3</name>
      </trkpt>
      <trkpt lat="35.854411860" lon="-106.492553590">
        <ele>2578.000</ele>
        <time>2019-02-12T17:58:58Z</time>
        <name>WPT.4</name>
      </trkpt>
      <trkpt lat="35.854376360" lon="-106.492578320">
        <ele>2578.000</ele>
        <time>2019-02-12T17:59:02Z</time>
        <name>WPT.5</name>
      </trkpt>
      <trkpt lat="35.854342140" lon="-106.492602150">
        <ele>2578.000</ele>
        <time>2019-02-12T17:59:06Z</time>
        <name>WPT.6</name>
      </trkpt>
      <trkpt lat="35.854310350" lon="-106.492627870">
        <ele>2578.000</ele>
        <time>2019-02-12T17:59:10Z</time>
        <name>WPT.7</name>
      </trkpt>
      <trkpt lat="35.854280700" lon="-106.492657640">
        <ele>2578.000</ele>
        <time>2019-02-12T17:59:14Z</time>
        <name>WPT.8</name>
      </trkpt>
      <trkpt lat="35.854246790" lon="-106.492691900">
        <ele>2577.000</ele>
        <time>2019-02-12T17:59:19Z</time>
        <name>WPT.9</name>
      </trkpt>
      <trkpt lat="35.854213430" lon="-106.492718940">
        <ele>2577.000</ele>
        <time>2019-02-12T17:59:23Z</time>
        <name>WPT.10</name>
      </trkpt>
      <trkpt lat="35.854180420" lon="-106.492742940">
        <ele>2577.000</ele>
        <time>2019-02-12T17:59:27Z</time>
        <name>WPT.11</name>
      </trkpt>
      <trkpt lat="35.854143750" lon="-106.492766430">
        <ele>2578.000</ele>
        <time>2019-02-12T17:59:31Z</time>
        <name>WPT.12</name>
      </trkpt>
      <trkpt lat="35.854107350" lon="-106.492790910">
        <ele>2578.000</ele>
        <time>2019-02-12T17:59:35Z</time>
        <name>WPT.13</name>
      </trkpt>
      <trkpt lat="35.854069960" lon="-106.492813740">
        <ele>2578.000</ele>
        <time>2019-02-12T17:59:39Z</time>
        <name>WPT.14</name>
      </trkpt>
      <trkpt lat="35.854031540" lon="-106.492828220">
        <ele>2578.000</ele>
        <time>2019-02-12T17:59:43Z</time>
        <name>WPT.15</name>
      </trkpt>
      <trkpt lat="35.853996000" lon="-106.492860190">
        <ele>2577.000</ele>
        <time>2019-02-12T17:59:48Z</time>
        <name>WPT.16</name>
      </trkpt>
      <trkpt lat="35.853962130" lon="-106.492887640">
        <ele>2577.000</ele>
        <time>2019-02-12T17:59:53Z</time>
        <name>WPT.17</name>
      </trkpt>
      <trkpt lat="35.853928050" lon="-106.492907740">
        <ele>2577.000</ele>
        <time>2019-02-12T17:59:57Z</time>
        <name>WPT.18</name>
      </trkpt>
      <trkpt lat="35.853894700" lon="-106.492931730">
        <ele>2578.000</ele>
        <time>2019-02-12T18:00:01Z</time>
        <name>WPT.19</name>
      </trkpt>
      <trkpt lat="35.853863400" lon="-106.492957770">
        <ele>2578.000</ele>
        <time>2019-02-12T18:00:05Z</time>
        <name>WPT.20</name>
      </trkpt>
      <trkpt lat="35.853831960" lon="-106.492982860">
        <ele>2578.000</ele>
        <time>2019-02-12T18:00:09Z</time>
        <name>WPT.21</name>
      </trkpt>
      <trkpt lat="35.853793780" lon="-106.493008850">
        <ele>2578.000</ele>
        <time>2019-02-12T18:00:14Z</time>
        <name>WPT.22</name>
      </trkpt>
      <trkpt lat="35.853759840" lon="-106.493039410">
        <ele>2578.000</ele>
        <time>2019-02-12T18:00:19Z</time>
        <name>WPT.23</name>
      </trkpt>
      <trkpt lat="35.853727420" lon="-106.493078290">
        <ele>2578.000</ele>
        <time>2019-02-12T18:00:24Z</time>
        <name>WPT.24</name>
      </trkpt>
      <trkpt lat="35.853687010" lon="-106.493102710">
        <ele>2578.000</ele>
        <time>2019-02-12T18:00:29Z</time>
        <name>WPT.25</name>
      </trkpt>
      <trkpt lat="35.853648050" lon="-106.493124590">
        <ele>2578.000</ele>
        <time>2019-02-12T18:00:34Z</time>
        <name>WPT.26</name>
      </trkpt>
      <trkpt lat="35.853615260" lon="-106.493143390">
        <ele>2578.000</ele>
        <time>2019-02-12T18:00:38Z</time>
        <name>WPT.27</name>
      </trkpt>
      <trkpt lat="35.853574160" lon="-106.493153720">
        <ele>2578.000</ele>
        <time>2019-02-12T18:00:43Z</time>
        <name>WPT.28</name>
      </trkpt>
      <trkpt lat="35.853541370" lon="-106.493172330">
        <ele>2579.000</ele>
        <time>2019-02-12T18:02:29Z</time>
        <name>WPT.29</name>
      </trkpt>
      <trkpt lat="35.853496270" lon="-106.493190110">
        <ele>2578.000</ele>
        <time>2019-02-12T18:02:34Z</time>
        <name>WPT.30</name>
      </trkpt>
      <trkpt lat="35.853457490" lon="-106.493205230">
        <ele>2579.000</ele>
        <time>2019-02-12T18:02:40Z</time>
        <name>WPT.31</name>
      </trkpt>
      <trkpt lat="35.853422790" lon="-106.493234660">
        <ele>2579.000</ele>
        <time>2019-02-12T18:02:45Z</time>
        <name>WPT.32</name>
      </trkpt>
      <trkpt lat="35.853385830" lon="-106.493267760">
        <ele>2579.000</ele>
        <time>2019-02-12T18:02:51Z</time>
        <name>WPT.33</name>
      </trkpt>
      <trkpt lat="35.853348540" lon="-106.493291950">
        <ele>2579.000</ele>
        <time>2019-02-12T18:02:57Z</time>
        <name>WPT.34</name>
      </trkpt>
      <trkpt lat="35.853314780" lon="-106.493308000">
        <ele>2580.000</ele>
        <time>2019-02-12T18:03:01Z</time>
        <name>WPT.35</name>
      </trkpt>
      <trkpt lat="35.853279480" lon="-106.493319200">
        <ele>2579.000</ele>
        <time>2019-02-12T18:03:05Z</time>
        <name>WPT.36</name>
      </trkpt>
      <trkpt lat="35.853244680" lon="-106.493343960">
        <ele>2579.000</ele>
        <time>2019-02-12T18:03:09Z</time>
        <name>WPT.37</name>
      </trkpt>
      <trkpt lat="35.853209710" lon="-106.493367500">
        <ele>2580.000</ele>
        <time>2019-02-12T18:03:13Z</time>
        <name>WPT.38</name>
      </trkpt>
      <trkpt lat="35.853172990" lon="-106.493397210">
        <ele>2579.000</ele>
        <time>2019-02-12T18:03:18Z</time>
        <name>WPT.39</name>
      </trkpt>
      <trkpt lat="35.853136730" lon="-106.493417270">
        <ele>2579.000</ele>
        <time>2019-02-12T18:03:23Z</time>
        <name>WPT.40</name>
      </trkpt>
      <trkpt lat="35.853103560" lon="-106.493445990">
        <ele>2579.000</ele>
        <time>2019-02-12T18:03:27Z</time>
        <name>WPT.41</name>
      </trkpt>
      <trkpt lat="35.853068980" lon="-106.493469090">
        <ele>2578.000</ele>
        <time>2019-02-12T18:03:31Z</time>
        <name>WPT.42</name>
      </trkpt>
      <trkpt lat="35.853032790" lon="-106.493487560">
        <ele>2578.000</ele>
        <time>2019-02-12T18:03:37Z</time>
        <name>WPT.43</name>
      </trkpt>
      <trkpt lat="35.852997450" lon="-106.493503840">
        <ele>2578.000</ele>
        <time>2019-02-12T18:04:49Z</time>
        <name>WPT.44</name>
      </trkpt>
      <trkpt lat="35.852970450" lon="-106.493537860">
        <ele>2578.000</ele>
        <time>2019-02-12T18:04:55Z</time>
        <name>WPT.45</name>
      </trkpt>
      <trkpt lat="35.852939880" lon="-106.493573020">
        <ele>2578.000</ele>
        <time>2019-02-12T18:05:00Z</time>
        <name>WPT.46</name>
      </trkpt>
      <trkpt lat="35.852912060" lon="-106.493609300">
        <ele>2578.000</ele>
        <time>2019-02-12T18:05:04Z</time>
        <name>WPT.47</name>
      </trkpt>
      <trkpt lat="35.852887450" lon="-106.493647320">
        <ele>2578.000</ele>
        <time>2019-02-12T18:05:08Z</time>
        <name>WPT.48</name>
      </trkpt>
      <trkpt lat="35.852868400" lon="-106.493689030">
        <ele>2578.000</ele>
        <time>2019-02-12T18:05:12Z</time>
        <name>WPT.49</name>
      </trkpt>
      <trkpt lat="35.852837250" lon="-106.493728890">
        <ele>2578.000</ele>
        <time>2019-02-12T18:05:17Z</time>
        <name>WPT.50</name>
      </trkpt>
      <trkpt lat="35.852800780" lon="-106.493767060">
        <ele>2577.000</ele>
        <time>2019-02-12T18:05:22Z</time>
        <name>WPT.51</name>
      </trkpt>
      <trkpt lat="35.852772840" lon="-106.493799330">
        <ele>2577.000</ele>
        <time>2019-02-12T18:05:26Z</time>
        <name>WPT.52</name>
      </trkpt>
      <trkpt lat="35.852745720" lon="-106.493828730">
        <ele>2577.000</ele>
        <time>2019-02-12T18:05:30Z</time>
        <name>WPT.53</name>
      </trkpt>
      <trkpt lat="35.852717360" lon="-106.493867940">
        <ele>2576.000</ele>
        <time>2019-02-12T18:05:35Z</time>
        <name>WPT.54</name>
      </trkpt>
      <trkpt lat="35.852687030" lon="-106.493894020">
        <ele>2576.000</ele>
        <time>2019-02-12T18:05:39Z</time>
        <name>WPT.55</name>
      </trkpt>
      <trkpt lat="35.852660380" lon="-106.493933990">
        <ele>2575.000</ele>
        <time>2019-02-12T18:05:43Z</time>
        <name>WPT.56</name>
      </trkpt>
      <trkpt lat="35.852636870" lon="-106.493968010">
        <ele>2575.000</ele>
        <time>2019-02-12T18:05:47Z</time>
        <name>WPT.57</name>
      </trkpt>
      <trkpt lat="35.852612650" lon="-106.494012020">
        <ele>2576.000</ele>
        <time>2019-02-12T18:05:52Z</time>
        <name>WPT.58</name>
      </trkpt>
      <trkpt lat="35.852601420" lon="-106.494061300">
        <ele>2576.000</ele>
        <time>2019-02-12T18:05:58Z</time>
        <name>WPT.59</name>
      </trkpt>
      <trkpt lat="35.852582770" lon="-106.494100780">
        <ele>2576.000</ele>
        <time>2019-02-12T18:06:04Z</time>
        <name>WPT.60</name>
      </trkpt>
      <trkpt lat="35.852560870" lon="-106.494141690">
        <ele>2576.000</ele>
        <time>2019-02-12T18:06:12Z</time>
        <name>WPT.61</name>
      </trkpt>
      <trkpt lat="35.852542600" lon="-106.494185570">
        <ele>2576.000</ele>
        <time>2019-02-12T18:06:17Z</time>
        <name>WPT.62</name>
      </trkpt>
      <trkpt lat="35.852527430" lon="-106.494228950">
        <ele>2576.000</ele>
        <time>2019-02-12T18:06:22Z</time>
        <name>WPT.63</name>
      </trkpt>
      <trkpt lat="35.852517790" lon="-106.494279220">
        <ele>2575.000</ele>
        <time>2019-02-12T18:06:28Z</time>
        <name>WPT.64</name>
      </trkpt>
      <trkpt lat="35.852493000" lon="-106.494317430">
        <ele>2575.000</ele>
        <time>2019-02-12T18:06:33Z</time>
        <name>WPT.65</name>
      </trkpt>
      <trkpt lat="35.852460810" lon="-106.494351680">
        <ele>2575.000</ele>
        <time>2019-02-12T18:06:38Z</time>
        <name>WPT.66</name>
      </trkpt>
      <trkpt lat="35.852431920" lon="-106.494381700">
        <ele>2575.000</ele>
        <time>2019-02-12T18:06:43Z</time>
        <name>WPT.67</name>
      </trkpt>
      <trkpt lat="35.852412340" lon="-106.494428470">
        <ele>2574.000</ele>
        <time>2019-02-12T18:06:48Z</time>
        <name>WPT.68</name>
      </trkpt>
      <trkpt lat="35.852395090" lon="-106.494472070">
        <ele>2574.000</ele>
        <time>2019-02-12T18:06:53Z</time>
        <name>WPT.69</name>
      </trkpt>
      <trkpt lat="35.852383470" lon="-106.494515680">
        <ele>2575.000</ele>
        <time>2019-02-12T18:06:58Z</time>
        <name>WPT.70</name>
      </trkpt>
      <trkpt lat="35.852368760" lon="-106.494568340">
        <ele>2575.000</ele>
        <time>2019-02-12T18:07:04Z</time>
        <name>WPT.71</name>
      </trkpt>
      <trkpt lat="35.852357280" lon="-106.494616210">
        <ele>2575.000</ele>
        <time>2019-02-12T18:07:09Z</time>
        <name>WPT.72</name>
      </trkpt>
      <trkpt lat="35.852345300" lon="-106.494664410">
        <ele>2575.000</ele>
        <time>2019-02-12T18:07:14Z</time>
        <name>WPT.73</name>
      </trkpt>
      <trkpt lat="35.852327750" lon="-106.494706470">
        <ele>2574.000</ele>
        <time>2019-02-12T18:07:20Z</time>
        <name>WPT.74</name>
      </trkpt>
      <trkpt lat="35.852318920" lon="-106.494754280">
        <ele>2574.000</ele>
        <time>2019-02-12T18:07:26Z</time>
        <name>WPT.75</name>
      </trkpt>
      <trkpt lat="35.852348160" lon="-106.494787210">
        <ele>2574.000</ele>
        <time>2019-02-12T18:07:34Z</time>
        <name>WPT.76</name>
      </trkpt>
      <trkpt lat="35.852343850" lon="-106.494839690">
        <ele>2574.000</ele>
        <time>2019-02-12T18:08:32Z</time>
        <name>WPT.77</name>
      </trkpt>
      <trkpt lat="35.852339050" lon="-106.494889940">
        <ele>2576.000</ele>
        <time>2019-02-12T18:08:37Z</time>
        <name>WPT.78</name>
      </trkpt>
      <trkpt lat="35.852329930" lon="-106.494943580">
        <ele>2576.000</ele>
        <time>2019-02-12T18:08:42Z</time>
        <name>WPT.79</name>
      </trkpt>
      <trkpt lat="35.852320160" lon="-106.494994170">
        <ele>2577.000</ele>
        <time>2019-02-12T18:08:46Z</time>
        <name>WPT.80</name>
      </trkpt>
      <trkpt lat="35.852320530" lon="-106.495046750">
        <ele>2578.000</ele>
        <time>2019-02-12T18:08:52Z</time>
        <name>WPT.81</name>
      </trkpt>
      <trkpt lat="35.852320910" lon="-106.495099320">
        <ele>2578.000</ele>
        <time>2019-02-12T18:08:58Z</time>
        <name>WPT.82</name>
      </trkpt>
      <trkpt lat="35.852320340" lon="-106.495146460">
        <ele>2577.000</ele>
        <time>2019-02-12T18:09:03Z</time>
        <name>WPT.83</name>
      </trkpt>
      <trkpt lat="35.852296320" lon="-106.495193650">
        <ele>2577.000</ele>
        <time>2019-02-12T18:09:08Z</time>
        <name>WPT.84</name>
      </trkpt>
      <trkpt lat="35.852283110" lon="-106.495238600">
        <ele>2577.000</ele>
        <time>2019-02-12T18:09:13Z</time>
        <name>WPT.85</name>
      </trkpt>
      <trkpt lat="35.852275160" lon="-106.495282100">
        <ele>2577.000</ele>
        <time>2019-02-12T18:09:17Z</time>
        <name>WPT.86</name>
      </trkpt>
      <trkpt lat="35.852282300" lon="-106.495332220">
        <ele>2577.000</ele>
        <time>2019-02-12T18:09:23Z</time>
        <name>WPT.87</name>
      </trkpt>
      <trkpt lat="35.852288370" lon="-106.495382100">
        <ele>2578.000</ele>
        <time>2019-02-12T18:09:28Z</time>
        <name>WPT.88</name>
      </trkpt>
      <trkpt lat="35.852287090" lon="-106.495435310">
        <ele>2577.000</ele>
        <time>2019-02-12T18:09:33Z</time>
        <name>WPT.89</name>
      </trkpt>
      <trkpt lat="35.852280960" lon="-106.495483180">
        <ele>2576.000</ele>
        <time>2019-02-12T18:09:37Z</time>
        <name>WPT.90</name>
      </trkpt>
      <trkpt lat="35.852282830" lon="-106.495530410">
        <ele>2576.000</ele>
        <time>2019-02-12T18:09:42Z</time>
        <name>WPT.91</name>
      </trkpt>
      <trkpt lat="35.852284400" lon="-106.495574720">
        <ele>2576.000</ele>
        <time>2019-02-12T18:09:46Z</time>
        <name>WPT.92</name>
      </trkpt>
      <trkpt lat="35.852282710" lon="-106.495630090">
        <ele>2576.000</ele>
        <time>2019-02-12T18:09:52Z</time>
        <name>WPT.93</name>
      </trkpt>
      <trkpt lat="35.852285540" lon="-106.495676590">
        <ele>2577.000</ele>
        <time>2019-02-12T18:09:56Z</time>
        <name>WPT.94</name>
      </trkpt>
      <trkpt lat="35.852305230" lon="-106.495720410">
        <ele>2576.000</ele>
        <time>2019-02-12T18:10:01Z</time>
        <name>WPT.95</name>
      </trkpt>
      <trkpt lat="35.852310460" lon="-106.495764770">
        <ele>2576.000</ele>
        <time>2019-02-12T18:10:05Z</time>
        <name>WPT.96</name>
      </trkpt>
      <trkpt lat="35.852324430" lon="-106.495816140">
        <ele>2576.000</ele>
        <time>2019-02-12T18:10:10Z</time>
        <name>WPT.97</name>
      </trkpt>
      <trkpt lat="35.852334970" lon="-106.495870050">
        <ele>2576.000</ele>
        <time>2019-02-12T18:10:15Z</time>
        <name>WPT.98</name>
      </trkpt>
      <trkpt lat="35.852347600" lon="-106.495912240">
        <ele>2576.000</ele>
        <time>2019-02-12T18:10:19Z</time>
        <name>WPT.99</name>
      </trkpt>
      <trkpt lat="35.852356460" lon="-106.495958130">
        <ele>2576.000</ele>
        <time>2019-02-12T18:10:24Z</time>
        <name>WPT.100</name>
      </trkpt>
      <trkpt lat="35.852364650" lon="-106.496008740">
        <ele>2576.000</ele>
        <time>2019-02-12T18:10:29Z</time>
        <name>WPT.101</name>
      </trkpt>
      <trkpt lat="35.852380930" lon="-106.496056930">
        <ele>2575.000</ele>
        <time>2019-02-12T18:10:35Z</time>
        <name>WPT.102</name>
      </trkpt>
      <trkpt lat="35.852389080" lon="-106.496100530">
        <ele>2575.000</ele>
        <time>2019-02-12T18:10:49Z</time>
        <name>WPT.103</name>
      </trkpt>
      <trkpt lat="35.852399350" lon="-106.496145860">
        <ele>2575.000</ele>
        <time>2019-02-12T18:10:56Z</time>
        <name>WPT.104</name>
      </trkpt>
      <trkpt lat="35.852412670" lon="-106.496193520">
        <ele>2575.000</ele>
        <time>2019-02-12T18:11:01Z</time>
        <name>WPT.105</name>
      </trkpt>
      <trkpt lat="35.852411200" lon="-106.496240680">
        <ele>2575.000</ele>
        <time>2019-02-12T18:11:09Z</time>
        <name>WPT.106</name>
      </trkpt>
      <trkpt lat="35.852424060" lon="-106.496286460">
        <ele>2574.000</ele>
        <time>2019-02-12T18:11:14Z</time>
        <name>WPT.107</name>
      </trkpt>
      <trkpt lat="35.852432750" lon="-106.496337840">
        <ele>2575.000</ele>
        <time>2019-02-12T18:11:19Z</time>
        <name>WPT.108</name>
      </trkpt>
      <trkpt lat="35.852437590" lon="-106.496390340">
        <ele>2575.000</ele>
        <time>2019-02-12T18:11:24Z</time>
        <name>WPT.109</name>
      </trkpt>
      <trkpt lat="35.852434220" lon="-106.496436690">
        <ele>2575.000</ele>
        <time>2019-02-12T18:11:29Z</time>
        <name>WPT.110</name>
      </trkpt>
      <trkpt lat="35.852447630" lon="-106.496483200">
        <ele>2575.000</ele>
        <time>2019-02-12T18:11:34Z</time>
        <name>WPT.111</name>
      </trkpt>
      <trkpt lat="35.852450250" lon="-106.496538510">
        <ele>2576.000</ele>
        <time>2019-02-12T18:11:39Z</time>
        <name>WPT.112</name>
      </trkpt>
      <trkpt lat="35.852469200" lon="-106.496584110">
        <ele>2577.000</ele>
        <time>2019-02-12T18:11:44Z</time>
        <name>WPT.113</name>
      </trkpt>
      <trkpt lat="35.852475300" lon="-106.496631370">
        <ele>2576.000</ele>
        <time>2019-02-12T18:11:49Z</time>
        <name>WPT.114</name>
      </trkpt>
      <trkpt lat="35.852483940" lon="-106.496674760">
        <ele>2576.000</ele>
        <time>2019-02-12T18:11:54Z</time>
        <name>WPT.115</name>
      </trkpt>
      <trkpt lat="35.852496650" lon="-106.496718760">
        <ele>2576.000</ele>
        <time>2019-02-12T18:11:59Z</time>
        <name>WPT.116</name>
      </trkpt>
      <trkpt lat="35.852509010" lon="-106.496763300">
        <ele>2576.000</ele>
        <time>2019-02-12T18:12:04Z</time>
        <name>WPT.117</name>
      </trkpt>
      <trkpt lat="35.852513090" lon="-106.496816920">
        <ele>2577.000</ele>
        <time>2019-02-12T18:12:09Z</time>
        <name>WPT.118</name>
      </trkpt>
      <trkpt lat="35.852522650" lon="-106.496862200">
        <ele>2577.000</ele>
        <time>2019-02-12T18:12:14Z</time>
        <name>WPT.119</name>
      </trkpt>
      <trkpt lat="35.852536150" lon="-106.496911110">
        <ele>2577.000</ele>
        <time>2019-02-12T18:12:20Z</time>
        <name>WPT.120</name>
      </trkpt>
      <trkpt lat="35.852536880" lon="-106.496961400">
        <ele>2577.000</ele>
        <time>2019-02-12T18:12:25Z</time>
        <name>WPT.121</name>
      </trkpt>
      <trkpt lat="35.852543120" lon="-106.497008200">
        <ele>2576.000</ele>
        <time>2019-02-12T18:14:24Z</time>
        <name>WPT.122</name>
      </trkpt>
      <trkpt lat="35.852537470" lon="-106.497052730">
        <ele>2575.000</ele>
        <time>2019-02-12T18:14:30Z</time>
        <name>WPT.123</name>
      </trkpt>
      <trkpt lat="35.852531090" lon="-106.497097400">
        <ele>2575.000</ele>
        <time>2019-02-12T18:14:35Z</time>
        <name>WPT.124</name>
      </trkpt>
      <trkpt lat="35.852524060" lon="-106.497145120">
        <ele>2575.000</ele>
        <time>2019-02-12T18:14:40Z</time>
        <name>WPT.125</name>
      </trkpt>
      <trkpt lat="35.852515530" lon="-106.497193280">
        <ele>2574.000</ele>
        <time>2019-02-12T18:14:44Z</time>
        <name>WPT.126</name>
      </trkpt>
      <trkpt lat="35.852507000" lon="-106.497243600">
        <ele>2574.000</ele>
        <time>2019-02-12T18:14:49Z</time>
        <name>WPT.127</name>
      </trkpt>
      <trkpt lat="35.852514940" lon="-106.497286990">
        <ele>2574.000</ele>
        <time>2019-02-12T18:14:54Z</time>
        <name>WPT.128</name>
      </trkpt>
      <trkpt lat="35.852533680" lon="-106.497334800">
        <ele>2575.000</ele>
        <time>2019-02-12T18:15:00Z</time>
        <name>WPT.129</name>
      </trkpt>
      <trkpt lat="35.852540340" lon="-106.497382170">
        <ele>2575.000</ele>
        <time>2019-02-12T18:15:05Z</time>
        <name>WPT.130</name>
      </trkpt>
      <trkpt lat="35.852532740" lon="-106.497432300">
        <ele>2574.000</ele>
        <time>2019-02-12T18:15:11Z</time>
        <name>WPT.131</name>
      </trkpt>
      <trkpt lat="35.852541360" lon="-106.497477830">
        <ele>2574.000</ele>
        <time>2019-02-12T18:15:15Z</time>
        <name>WPT.132</name>
      </trkpt>
      <trkpt lat="35.852548880" lon="-106.497531890">
        <ele>2574.000</ele>
        <time>2019-02-12T18:15:21Z</time>
        <name>WPT.133</name>
      </trkpt>
      <trkpt lat="35.852558680" lon="-106.497574770">
        <ele>2574.000</ele>
        <time>2019-02-12T18:15:26Z</time>
        <name>WPT.134</name>
      </trkpt>
      <trkpt lat="35.852568970" lon="-106.497617650">
        <ele>2574.000</ele>
        <time>2019-02-12T18:16:41Z</time>
        <name>WPT.135</name>
      </trkpt>
      <trkpt lat="35.852582240" lon="-106.497662660">
        <ele>2574.000</ele>
        <time>2019-02-12T18:16:46Z</time>
        <name>WPT.136</name>
      </trkpt>
      <trkpt lat="35.852595360" lon="-106.497706100">
        <ele>2573.000</ele>
        <time>2019-02-12T18:16:51Z</time>
        <name>WPT.137</name>
      </trkpt>
      <trkpt lat="35.852615800" lon="-106.497747960">
        <ele>2573.000</ele>
        <time>2019-02-12T18:16:57Z</time>
        <name>WPT.138</name>
      </trkpt>
      <trkpt lat="35.852632660" lon="-106.497798550">
        <ele>2573.000</ele>
        <time>2019-02-12T18:17:03Z</time>
        <name>WPT.139</name>
      </trkpt>
      <trkpt lat="35.852651510" lon="-106.497842700">
        <ele>2572.000</ele>
        <time>2019-02-12T18:17:07Z</time>
        <name>WPT.140</name>
      </trkpt>
      <trkpt lat="35.852659530" lon="-106.497894900">
        <ele>2573.000</ele>
        <time>2019-02-12T18:17:12Z</time>
        <name>WPT.141</name>
      </trkpt>
      <trkpt lat="35.852679580" lon="-106.497940540">
        <ele>2573.000</ele>
        <time>2019-02-12T18:17:18Z</time>
        <name>WPT.142</name>
      </trkpt>
      <trkpt lat="35.852699320" lon="-106.497984070">
        <ele>2573.000</ele>
        <time>2019-02-12T18:17:24Z</time>
        <name>WPT.143</name>
      </trkpt>
      <trkpt lat="35.852717280" lon="-106.498031780">
        <ele>2573.000</ele>
        <time>2019-02-12T18:17:30Z</time>
        <name>WPT.144</name>
      </trkpt>
      <trkpt lat="35.852733170" lon="-106.498080480">
        <ele>2573.000</ele>
        <time>2019-02-12T18:17:35Z</time>
        <name>WPT.145</name>
      </trkpt>
      <trkpt lat="35.852748630" lon="-106.498126340">
        <ele>2573.000</ele>
        <time>2019-02-12T18:17:42Z</time>
        <name>WPT.146</name>
      </trkpt>
      <trkpt lat="35.852769200" lon="-106.498165570">
        <ele>2574.000</ele>
        <time>2019-02-12T18:17:48Z</time>
        <name>WPT.147</name>
      </trkpt>
      <trkpt lat="35.852793660" lon="-106.498211210">
        <ele>2575.000</ele>
        <time>2019-02-12T18:17:54Z</time>
        <name>WPT.148</name>
      </trkpt>
      <trkpt lat="35.852808010" lon="-106.498253690">
        <ele>2574.000</ele>
        <time>2019-02-12T18:17:58Z</time>
        <name>WPT.149</name>
      </trkpt>
      <trkpt lat="35.852824000" lon="-106.498295800">
        <ele>2575.000</ele>
        <time>2019-02-12T18:18:02Z</time>
        <name>WPT.150</name>
      </trkpt>
      <trkpt lat="35.852841320" lon="-106.498335090">
        <ele>2575.000</ele>
        <time>2019-02-12T18:18:07Z</time>
        <name>WPT.151</name>
      </trkpt>
      <trkpt lat="35.852856860" lon="-106.498388240">
        <ele>2575.000</ele>
        <time>2019-02-12T18:18:13Z</time>
        <name>WPT.152</name>
      </trkpt>
      <trkpt lat="35.852865540" lon="-106.498436560">
        <ele>2575.000</ele>
        <time>2019-02-12T18:18:18Z</time>
        <name>WPT.153</name>
      </trkpt>
      <trkpt lat="35.852884440" lon="-106.498475900">
        <ele>2575.000</ele>
        <time>2019-02-12T18:18:23Z</time>
        <name>WPT.154</name>
      </trkpt>
      <trkpt lat="35.852898030" lon="-106.498520200">
        <ele>2574.000</ele>
        <time>2019-02-12T18:18:28Z</time>
        <name>WPT.155</name>
      </trkpt>
      <trkpt lat="35.852914660" lon="-106.498559740">
        <ele>2574.000</ele>
        <time>2019-02-12T18:18:32Z</time>
        <name>WPT.156</name>
      </trkpt>
      <trkpt lat="35.852941190" lon="-106.498592010">
        <ele>2573.000</ele>
        <time>2019-02-12T18:18:37Z</time>
        <name>WPT.157</name>
      </trkpt>
      <trkpt lat="35.852968090" lon="-106.498632400">
        <ele>2573.000</ele>
        <time>2019-02-12T18:18:42Z</time>
        <name>WPT.158</name>
      </trkpt>
      <trkpt lat="35.852988450" lon="-106.498676830">
        <ele>2572.000</ele>
        <time>2019-02-12T18:18:47Z</time>
        <name>WPT.159</name>
      </trkpt>
      <trkpt lat="35.853006490" lon="-106.498716460">
        <ele>2572.000</ele>
        <time>2019-02-12T18:18:52Z</time>
        <name>WPT.160</name>
      </trkpt>
      <trkpt lat="35.853031220" lon="-106.498758470">
        <ele>2573.000</ele>
        <time>2019-02-12T18:18:58Z</time>
        <name>WPT.161</name>
      </trkpt>
      <trkpt lat="35.853045800" lon="-106.498800260">
        <ele>2572.000</ele>
        <time>2019-02-12T18:19:21Z</time>
        <name>WPT.162</name>
      </trkpt>
      <trkpt lat="35.853059710" lon="-106.498847680">
        <ele>2573.000</ele>
        <time>2019-02-12T18:19:27Z</time>
        <name>WPT.163</name>
      </trkpt>
      <trkpt lat="35.853084250" lon="-106.498889900">
        <ele>2573.000</ele>
        <time>2019-02-12T18:19:33Z</time>
        <name>WPT.164</name>
      </trkpt>
      <trkpt lat="35.853103920" lon="-106.498937450">
        <ele>2573.000</ele>
        <time>2019-02-12T18:19:41Z</time>
        <name>WPT.165</name>
      </trkpt>
      <trkpt lat="35.853124600" lon="-106.498976450">
        <ele>2573.000</ele>
        <time>2019-02-12T18:19:45Z</time>
        <name>WPT.166</name>
      </trkpt>
      <trkpt lat="35.853154170" lon="-106.499017210">
        <ele>2573.000</ele>
        <time>2019-02-12T18:19:51Z</time>
        <name>WPT.167</name>
      </trkpt>
      <trkpt lat="35.853174400" lon="-106.499054460">
        <ele>2573.000</ele>
        <time>2019-02-12T18:19:56Z</time>
        <name>WPT.168</name>
      </trkpt>
      <trkpt lat="35.853192250" lon="-106.499095780">
        <ele>2574.000</ele>
        <time>2019-02-12T18:20:01Z</time>
        <name>WPT.169</name>
      </trkpt>
      <trkpt lat="35.853213680" lon="-106.499140550">
        <ele>2574.000</ele>
        <time>2019-02-12T18:20:07Z</time>
        <name>WPT.170</name>
      </trkpt>
      <trkpt lat="35.853244030" lon="-106.499171340">
        <ele>2575.000</ele>
        <time>2019-02-12T18:20:13Z</time>
        <name>WPT.171</name>
      </trkpt>
      <trkpt lat="35.853269220" lon="-106.499204530">
        <ele>2574.000</ele>
        <time>2019-02-12T18:20:19Z</time>
        <name>WPT.172</name>
      </trkpt>
      <trkpt lat="35.853299370" lon="-106.499248220">
        <ele>2574.000</ele>
        <time>2019-02-12T18:20:25Z</time>
        <name>WPT.173</name>
      </trkpt>
      <trkpt lat="35.853318590" lon="-106.499289340">
        <ele>2574.000</ele>
        <time>2019-02-12T18:20:30Z</time>
        <name>WPT.174</name>
      </trkpt>
      <trkpt lat="35.853346900" lon="-106.499330330">
        <ele>2574.000</ele>
        <time>2019-02-12T18:20:36Z</time>
        <name>WPT.175</name>
      </trkpt>
      <trkpt lat="35.853364850" lon="-106.499369190">
        <ele>2575.000</ele>
        <time>2019-02-12T18:20:41Z</time>
        <name>WPT.176</name>
      </trkpt>
      <trkpt lat="35.853380440" lon="-106.499416520">
        <ele>2574.000</ele>
        <time>2019-02-12T18:20:47Z</time>
        <name>WPT.177</name>
      </trkpt>
      <trkpt lat="35.853409040" lon="-106.499452100">
        <ele>2574.000</ele>
        <time>2019-02-12T18:20:52Z</time>
        <name>WPT.178</name>
      </trkpt>
      <trkpt lat="35.853431650" lon="-106.499487920">
        <ele>2575.000</ele>
        <time>2019-02-12T18:20:57Z</time>
        <name>WPT.179</name>
      </trkpt>
      <trkpt lat="35.853457310" lon="-106.499520960">
        <ele>2575.000</ele>
        <time>2019-02-12T18:21:02Z</time>
        <name>WPT.180</name>
      </trkpt>
      <trkpt lat="35.853484650" lon="-106.499551490">
        <ele>2576.000</ele>
        <time>2019-02-12T18:21:07Z</time>
        <name>WPT.181</name>
      </trkpt>
      <trkpt lat="35.853516240" lon="-106.499580040">
        <ele>2576.000</ele>
        <time>2019-02-12T18:21:12Z</time>
        <name>WPT.182</name>
      </trkpt>
      <trkpt lat="35.853550940" lon="-106.499610860">
        <ele>2576.000</ele>
        <time>2019-02-12T18:21:17Z</time>
        <name>WPT.183</name>
      </trkpt>
      <trkpt lat="35.853575550" lon="-106.499649350">
        <ele>2577.000</ele>
        <time>2019-02-12T18:21:23Z</time>
        <name>WPT.184</name>
      </trkpt>
      <trkpt lat="35.853615580" lon="-106.499655670">
        <ele>2577.000</ele>
        <time>2019-02-12T18:23:52Z</time>
        <name>WPT.185</name>
      </trkpt>
      <trkpt lat="35.853643950" lon="-106.499691330">
        <ele>2577.000</ele>
        <time>2019-02-12T18:23:58Z</time>
        <name>WPT.186</name>
      </trkpt>
      <trkpt lat="35.853666230" lon="-106.499729080">
        <ele>2577.000</ele>
        <time>2019-02-12T18:24:03Z</time>
        <name>WPT.187</name>
      </trkpt>
      <trkpt lat="35.853690480" lon="-106.499767090">
        <ele>2576.000</ele>
        <time>2019-02-12T18:24:08Z</time>
        <name>WPT.188</name>
      </trkpt>
      <trkpt lat="35.853715130" lon="-106.499808740">
        <ele>2577.000</ele>
        <time>2019-02-12T18:24:13Z</time>
        <name>WPT.189</name>
      </trkpt>
      <trkpt lat="35.853744710" lon="-106.499834970">
        <ele>2577.000</ele>
        <time>2019-02-12T18:24:17Z</time>
        <name>WPT.190</name>
      </trkpt>
      <trkpt lat="35.853774360" lon="-106.499861920">
        <ele>2577.000</ele>
        <time>2019-02-12T18:24:21Z</time>
        <name>WPT.191</name>
      </trkpt>
      <trkpt lat="35.853805220" lon="-106.499889770">
        <ele>2578.000</ele>
        <time>2019-02-12T18:24:26Z</time>
        <name>WPT.192</name>
      </trkpt>
      <trkpt lat="35.853832470" lon="-106.499926520">
        <ele>2578.000</ele>
        <time>2019-02-12T18:24:31Z</time>
        <name>WPT.193</name>
      </trkpt>
      <trkpt lat="35.853861120" lon="-106.499958000">
        <ele>2578.000</ele>
        <time>2019-02-12T18:24:36Z</time>
        <name>WPT.194</name>
      </trkpt>
      <trkpt lat="35.853893260" lon="-106.499983940">
        <ele>2578.000</ele>
        <time>2019-02-12T18:24:41Z</time>
        <name>WPT.195</name>
      </trkpt>
      <trkpt lat="35.853916210" lon="-106.500030720">
        <ele>2577.000</ele>
        <time>2019-02-12T18:24:46Z</time>
        <name>WPT.196</name>
      </trkpt>
      <trkpt lat="35.853944810" lon="-106.500071570">
        <ele>2577.000</ele>
        <time>2019-02-12T18:24:51Z</time>
        <name>WPT.197</name>
      </trkpt>
      <trkpt lat="35.853965040" lon="-106.500108580">
        <ele>2577.000</ele>
        <time>2019-02-12T18:24:55Z</time>
        <name>WPT.198</name>
      </trkpt>
      <trkpt lat="35.853984480" lon="-106.500154000">
        <ele>2577.000</ele>
        <time>2019-02-12T18:25:00Z</time>
        <name>WPT.199</name>
      </trkpt>
      <trkpt lat="35.854015260" lon="-106.500183500">
        <ele>2576.000</ele>
        <time>2019-02-12T18:25:06Z</time>
        <name>WPT.200</name>
      </trkpt>
      <trkpt lat="35.854039450" lon="-106.500220700">
        <ele>2576.000</ele>
        <time>2019-02-12T18:25:11Z</time>
        <name>WPT.201</name>
      </trkpt>
      <trkpt lat="35.854063490" lon="-106.500254100">
        <ele>2577.000</ele>
        <time>2019-02-12T18:25:16Z</time>
        <name>WPT.202</name>
      </trkpt>
      <trkpt lat="35.854094460" lon="-106.500281700">
        <ele>2578.000</ele>
        <time>2019-02-12T18:25:21Z</time>
        <name>WPT.203</name>
      </trkpt>
      <trkpt lat="35.854121490" lon="-106.500315180">
        <ele>2578.000</ele>
        <time>2019-02-12T18:25:26Z</time>
        <name>WPT.204</name>
      </trkpt>
      <trkpt lat="35.854147050" lon="-106.500359390">
        <ele>2578.000</ele>
        <time>2019-02-12T18:25:32Z</time>
        <name>WPT.205</name>
      </trkpt>
      <trkpt lat="35.854176450" lon="-106.500389450">
        <ele>2577.000</ele>
        <time>2019-02-12T18:25:37Z</time>
        <name>WPT.206</name>
      </trkpt>
      <trkpt lat="35.854184210" lon="-106.500433270">
        <ele>2573.000</ele>
        <time>2019-02-12T18:26:21Z</time>
        <name>WPT.207</name>
      </trkpt>
      <trkpt lat="35.854166460" lon="-106.500475410">
        <ele>2574.000</ele>
        <time>2019-02-12T18:26:25Z</time>
        <name>WPT.208</name>
      </trkpt>
      <trkpt lat="35.854146250" lon="-106.500513060">
        <ele>2573.000</ele>
        <time>2019-02-12T18:26:29Z</time>
        <name>WPT.209</name>
      </trkpt>
      <trkpt lat="35.854126880" lon="-106.500562530">
        <ele>2572.000</ele>
        <time>2019-02-12T18:26:34Z</time>
        <name>WPT.210</name>
      </trkpt>
      <trkpt lat="35.854106930" lon="-106.500604480">
        <ele>2572.000</ele>
        <time>2019-02-12T18:26:40Z</time>
        <name>WPT.211</name>
      </trkpt>
      <trkpt lat="35.854088760" lon="-106.500649310">
        <ele>2572.000</ele>
        <time>2019-02-12T18:26:46Z</time>
        <name>WPT.212</name>
      </trkpt>
      <trkpt lat="35.854077770" lon="-106.500700040">
        <ele>2572.000</ele>
        <time>2019-02-12T18:26:52Z</time>
        <name>WPT.213</name>
      </trkpt>
      <trkpt lat="35.854054340" lon="-106.500745570">
        <ele>2572.000</ele>
        <time>2019-02-12T18:26:58Z</time>
        <name>WPT.214</name>
      </trkpt>
      <trkpt lat="35.854033540" lon="-106.500784850">
        <ele>2572.000</ele>
        <time>2019-02-12T18:27:03Z</time>
        <name>WPT.215</name>
      </trkpt>
      <trkpt lat="35.854012310" lon="-106.500828590">
        <ele>2572.000</ele>
        <time>2019-02-12T18:27:09Z</time>
        <name>WPT.216</name>
      </trkpt>
      <trkpt lat="35.853993050" lon="-106.500868170">
        <ele>2571.000</ele>
        <time>2019-02-12T18:27:14Z</time>
        <name>WPT.217</name>
      </trkpt>
      <trkpt lat="35.853970240" lon="-106.500910580">
        <ele>2571.000</ele>
        <time>2019-02-12T18:27:19Z</time>
        <name>WPT.218</name>
      </trkpt>
      <trkpt lat="35.853958920" lon="-106.500953350">
        <ele>2570.000</ele>
        <time>2019-02-12T18:27:24Z</time>
        <name>WPT.219</name>
      </trkpt>
      <trkpt lat="35.853944230" lon="-106.500996390">
        <ele>2571.000</ele>
        <time>2019-02-12T18:27:29Z</time>
        <name>WPT.220</name>
      </trkpt>
      <trkpt lat="35.853922560" lon="-106.501033370">
        <ele>2571.000</ele>
        <time>2019-02-12T18:27:36Z</time>
        <name>WPT.221</name>
      </trkpt>
      <trkpt lat="35.853901620" lon="-106.501075930">
        <ele>2570.000</ele>
        <time>2019-02-12T18:27:43Z</time>
        <name>WPT.222</name>
      </trkpt>
      <trkpt lat="35.853883480" lon="-106.501119190">
        <ele>2570.000</ele>
        <time>2019-02-12T18:27:48Z</time>
        <name>WPT.223</name>
      </trkpt>
      <trkpt lat="35.853864210" lon="-106.501159920">
        <ele>2570.000</ele>
        <time>2019-02-12T18:27:52Z</time>
        <name>WPT.224</name>
      </trkpt>
      <trkpt lat="35.853845090" lon="-106.501198390">
        <ele>2568.000</ele>
        <time>2019-02-12T18:27:57Z</time>
        <name>WPT.225</name>
      </trkpt>
      <trkpt lat="35.853824040" lon="-106.501238790">
        <ele>2568.000</ele>
        <time>2019-02-12T18:28:02Z</time>
        <name>WPT.226</name>
      </trkpt>
      <trkpt lat="35.853798860" lon="-106.501281160">
        <ele>2568.000</ele>
        <time>2019-02-12T18:28:07Z</time>
        <name>WPT.227</name>
      </trkpt>
      <trkpt lat="35.853782010" lon="-106.501325530">
        <ele>2568.000</ele>
        <time>2019-02-12T18:28:12Z</time>
        <name>WPT.228</name>
      </trkpt>
      <trkpt lat="35.853762940" lon="-106.501366150">
        <ele>2568.000</ele>
        <time>2019-02-12T18:28:17Z</time>
        <name>WPT.229</name>
      </trkpt>
      <trkpt lat="35.853744000" lon="-106.501405910">
        <ele>2568.000</ele>
        <time>2019-02-12T18:28:22Z</time>
        <name>WPT.230</name>
      </trkpt>
      <trkpt lat="35.853724080" lon="-106.501448210">
        <ele>2569.000</ele>
        <time>2019-02-12T18:28:27Z</time>
        <name>WPT.231</name>
      </trkpt>
      <trkpt lat="35.853702960" lon="-106.501488590">
        <ele>2568.000</ele>
        <time>2019-02-12T18:28:32Z</time>
        <name>WPT.232</name>
      </trkpt>
      <trkpt lat="35.853678740" lon="-106.501524200">
        <ele>2568.000</ele>
        <time>2019-02-12T18:28:38Z</time>
        <name>WPT.233</name>
      </trkpt>
      <trkpt lat="35.853658020" lon="-106.501569350">
        <ele>2568.000</ele>
        <time>2019-02-12T18:28:43Z</time>
        <name>WPT.234</name>
      </trkpt>
      <trkpt lat="35.853629470" lon="-106.501608940">
        <ele>2567.000</ele>
        <time>2019-02-12T18:28:48Z</time>
        <name>WPT.235</name>
      </trkpt>
      <trkpt lat="35.853608610" lon="-106.501652930">
        <ele>2567.000</ele>
        <time>2019-02-12T18:28:53Z</time>
        <name>WPT.236</name>
      </trkpt>
      <trkpt lat="35.853590790" lon="-106.501691870">
        <ele>2568.000</ele>
        <time>2019-02-12T18:28:57Z</time>
        <name>WPT.237</name>
      </trkpt>
      <trkpt lat="35.853570670" lon="-106.501739760">
        <ele>2568.000</ele>
        <time>2019-02-12T18:29:03Z</time>
        <name>WPT.238</name>
      </trkpt>
      <trkpt lat="35.853552630" lon="-106.501788080">
        <ele>2568.000</ele>
        <time>2019-02-12T18:29:08Z</time>
        <name>WPT.239</name>
      </trkpt>
      <trkpt lat="35.853524370" lon="-106.501829110">
        <ele>2567.000</ele>
        <time>2019-02-12T18:29:13Z</time>
        <name>WPT.240</name>
      </trkpt>
      <trkpt lat="35.853502640" lon="-106.501873490">
        <ele>2567.000</ele>
        <time>2019-02-12T18:29:19Z</time>
        <name>WPT.241</name>
      </trkpt>
      <trkpt lat="35.853487540" lon="-106.501914020">
        <ele>2568.000</ele>
        <time>2019-02-12T18:29:24Z</time>
        <name>WPT.242</name>
      </trkpt>
      <trkpt lat="35.853466550" lon="-106.501964900">
        <ele>2567.000</ele>
        <time>2019-02-12T18:29:29Z</time>
        <name>WPT.243</name>
      </trkpt>
      <trkpt lat="35.853441270" lon="-106.502004500">
        <ele>2567.000</ele>
        <time>2019-02-12T18:29:34Z</time>
        <name>WPT.244</name>
      </trkpt>
      <trkpt lat="35.853421070" lon="-106.502046540">
        <ele>2567.000</ele>
        <time>2019-02-12T18:29:39Z</time>
        <name>WPT.245</name>
      </trkpt>
      <trkpt lat="35.853407260" lon="-106.502088610">
        <ele>2567.000</ele>
        <time>2019-02-12T18:29:44Z</time>
        <name>WPT.246</name>
      </trkpt>
      <trkpt lat="35.853386930" lon="-106.502127950">
        <ele>2566.000</ele>
        <time>2019-02-12T18:29:49Z</time>
        <name>WPT.247</name>
      </trkpt>
      <trkpt lat="35.853369520" lon="-106.502168220">
        <ele>2566.000</ele>
        <time>2019-02-12T18:29:54Z</time>
        <name>WPT.248</name>
      </trkpt>
      <trkpt lat="35.853345500" lon="-106.502208500">
        <ele>2566.000</ele>
        <time>2019-02-12T18:30:00Z</time>
        <name>WPT.249</name>
      </trkpt>
      <trkpt lat="35.853322420" lon="-106.502248630">
        <ele>2567.000</ele>
        <time>2019-02-12T18:30:05Z</time>
        <name>WPT.250</name>
      </trkpt>
      <trkpt lat="35.853298510" lon="-106.502289120">
        <ele>2567.000</ele>
        <time>2019-02-12T18:30:10Z</time>
        <name>WPT.251</name>
      </trkpt>
      <trkpt lat="35.853280600" lon="-106.502328670">
        <ele>2567.000</ele>
        <time>2019-02-12T18:30:14Z</time>
        <name>WPT.252</name>
      </trkpt>
      <trkpt lat="35.853256360" lon="-106.502372240">
        <ele>2566.000</ele>
        <time>2019-02-12T18:30:19Z</time>
        <name>WPT.253</name>
      </trkpt>
      <trkpt lat="35.853235700" lon="-106.502416710">
        <ele>2570.000</ele>
        <time>2019-02-12T18:31:59Z</time>
        <name>WPT.254</name>
      </trkpt>
      <trkpt lat="35.853226480" lon="-106.502462170">
        <ele>2570.000</ele>
        <time>2019-02-12T18:32:03Z</time>
        <name>WPT.255</name>
      </trkpt>
      <trkpt lat="35.853201860" lon="-106.502500500">
        <ele>2570.000</ele>
        <time>2019-02-12T18:32:08Z</time>
        <name>WPT.256</name>
      </trkpt>
      <trkpt lat="35.853175050" lon="-106.502534230">
        <ele>2570.000</ele>
        <time>2019-02-12T18:32:13Z</time>
        <name>WPT.257</name>
      </trkpt>
      <trkpt lat="35.853155580" lon="-106.502578040">
        <ele>2569.000</ele>
        <time>2019-02-12T18:32:18Z</time>
        <name>WPT.258</name>
      </trkpt>
      <trkpt lat="35.853144610" lon="-106.502620400">
        <ele>2569.000</ele>
        <time>2019-02-12T18:32:22Z</time>
        <name>WPT.259</name>
      </trkpt>
      <trkpt lat="35.853119220" lon="-106.502655300">
        <ele>2569.000</ele>
        <time>2019-02-12T18:32:27Z</time>
        <name>WPT.260</name>
      </trkpt>
      <trkpt lat="35.853097370" lon="-106.502696240">
        <ele>2568.000</ele>
        <time>2019-02-12T18:32:32Z</time>
        <name>WPT.261</name>
      </trkpt>
      <trkpt lat="35.853079340" lon="-106.502740050">
        <ele>2568.000</ele>
        <time>2019-02-12T18:32:37Z</time>
        <name>WPT.262</name>
      </trkpt>
      <trkpt lat="35.853052990" lon="-106.502782280">
        <ele>2569.000</ele>
        <time>2019-02-12T18:32:43Z</time>
        <name>WPT.263</name>
      </trkpt>
      <trkpt lat="35.853025550" lon="-106.502815210">
        <ele>2569.000</ele>
        <time>2019-02-12T18:32:48Z</time>
        <name>WPT.264</name>
      </trkpt>
      <trkpt lat="35.853000990" lon="-106.502860280">
        <ele>2569.000</ele>
        <time>2019-02-12T18:32:54Z</time>
        <name>WPT.265</name>
      </trkpt>
      <trkpt lat="35.852977490" lon="-106.502896190">
        <ele>2570.000</ele>
        <time>2019-02-12T18:32:59Z</time>
        <name>WPT.266</name>
      </trkpt>
      <trkpt lat="35.852952940" lon="-106.502938950">
        <ele>2570.000</ele>
        <time>2019-02-12T18:33:06Z</time>
        <name>WPT.267</name>
      </trkpt>
      <trkpt lat="35.852925920" lon="-106.502986430">
        <ele>2571.000</ele>
        <time>2019-02-12T18:33:11Z</time>
        <name>WPT.268</name>
      </trkpt>
      <trkpt lat="35.852899980" lon="-106.503023320">
        <ele>2571.000</ele>
        <time>2019-02-12T18:33:16Z</time>
        <name>WPT.269</name>
      </trkpt>
      <trkpt lat="35.852875190" lon="-106.503065490">
        <ele>2570.000</ele>
        <time>2019-02-12T18:33:21Z</time>
        <name>WPT.270</name>
      </trkpt>
      <trkpt lat="35.852856900" lon="-106.503103790">
        <ele>2571.000</ele>
        <time>2019-02-12T18:33:26Z</time>
        <name>WPT.271</name>
      </trkpt>
      <trkpt lat="35.852831310" lon="-106.503146890">
        <ele>2570.000</ele>
        <time>2019-02-12T18:33:31Z</time>
        <name>WPT.272</name>
      </trkpt>
      <trkpt lat="35.852809630" lon="-106.503191760">
        <ele>2570.000</ele>
        <time>2019-02-12T18:33:36Z</time>
        <name>WPT.273</name>
      </trkpt>
      <trkpt lat="35.852785450" lon="-106.503234860">
        <ele>2570.000</ele>
        <time>2019-02-12T18:33:41Z</time>
        <name>WPT.274</name>
      </trkpt>
      <trkpt lat="35.852756440" lon="-106.503268980">
        <ele>2570.000</ele>
        <time>2019-02-12T18:33:47Z</time>
        <name>WPT.275</name>
      </trkpt>
      <trkpt lat="35.852725600" lon="-106.503308670">
        <ele>2569.000</ele>
        <time>2019-02-12T18:33:53Z</time>
        <name>WPT.276</name>
      </trkpt>
      <trkpt lat="35.852697390" lon="-106.503342980">
        <ele>2569.000</ele>
        <time>2019-02-12T18:33:58Z</time>
        <name>WPT.277</name>
      </trkpt>
      <trkpt lat="35.852677450" lon="-106.503385630">
        <ele>2569.000</ele>
        <time>2019-02-12T18:34:05Z</time>
        <name>WPT.278</name>
      </trkpt>
      <trkpt lat="35.852654640" lon="-106.503426590">
        <ele>2570.000</ele>
        <time>2019-02-12T18:34:12Z</time>
        <name>WPT.279</name>
      </trkpt>
      <trkpt lat="35.852632780" lon="-106.503466510">
        <ele>2573.000</ele>
        <time>2019-02-12T18:34:20Z</time>
        <name>WPT.280</name>
      </trkpt>
      <trkpt lat="35.852612040" lon="-106.503508330">
        <ele>2572.000</ele>
        <time>2019-02-12T18:34:30Z</time>
        <name>WPT.281</name>
      </trkpt>
      <trkpt lat="35.852576740" lon="-106.503528110">
        <ele>2575.000</ele>
        <time>2019-02-12T18:34:46Z</time>
        <name>WPT.282</name>
      </trkpt>
      <trkpt lat="35.852552930" lon="-106.503568280">
        <ele>2578.000</ele>
        <time>2019-02-12T18:37:28Z</time>
        <name>WPT.283</name>
      </trkpt>
      <trkpt lat="35.852522660" lon="-106.503603450">
        <ele>2578.000</ele>
        <time>2019-02-12T18:37:35Z</time>
        <name>WPT.284</name>
      </trkpt>
      <trkpt lat="35.852499220" lon="-106.503638240">
        <ele>2579.000</ele>
        <time>2019-02-12T18:37:40Z</time>
        <name>WPT.285</name>
      </trkpt>
      <trkpt lat="35.852477420" lon="-106.503676260">
        <ele>2579.000</ele>
        <time>2019-02-12T18:37:45Z</time>
        <name>WPT.286</name>
      </trkpt>
      <trkpt lat="35.852447560" lon="-106.503714210">
        <ele>2579.000</ele>
        <time>2019-02-12T18:37:50Z</time>
        <name>WPT.287</name>
      </trkpt>
      <trkpt lat="35.852419580" lon="-106.503743800">
        <ele>2581.000</ele>
        <time>2019-02-12T18:37:56Z</time>
        <name>WPT.288</name>
      </trkpt>
      <trkpt lat="35.852392460" lon="-106.503777520">
        <ele>2582.000</ele>
        <time>2019-02-12T18:38:01Z</time>
        <name>WPT.289</name>
      </trkpt>
      <trkpt lat="35.852371470" lon="-106.503820110">
        <ele>2586.000</ele>
        <time>2019-02-12T18:39:26Z</time>
        <name>WPT.290</name>
      </trkpt>
      <trkpt lat="35.852355490" lon="-106.503866940">
        <ele>2587.000</ele>
        <time>2019-02-12T18:39:33Z</time>
        <name>WPT.291</name>
      </trkpt>
      <trkpt lat="35.852339340" lon="-106.503913260">
        <ele>2587.000</ele>
        <time>2019-02-12T18:39:39Z</time>
        <name>WPT.292</name>
      </trkpt>
      <trkpt lat="35.852323790" lon="-106.503956100">
        <ele>2586.000</ele>
        <time>2019-02-12T18:39:44Z</time>
        <name>WPT.293</name>
      </trkpt>
      <trkpt lat="35.852309080" lon="-106.503998980">
        <ele>2586.000</ele>
        <time>2019-02-12T18:39:50Z</time>
        <name>WPT.294</name>
      </trkpt>
      <trkpt lat="35.852293730" lon="-106.504045380">
        <ele>2586.000</ele>
        <time>2019-02-12T18:39:56Z</time>
        <name>WPT.295</name>
      </trkpt>
      <trkpt lat="35.852279490" lon="-106.504088630">
        <ele>2588.000</ele>
        <time>2019-02-12T18:40:01Z</time>
        <name>WPT.296</name>
      </trkpt>
      <trkpt lat="35.852263890" lon="-106.504135470">
        <ele>2589.000</ele>
        <time>2019-02-12T18:40:07Z</time>
        <name>WPT.297</name>
      </trkpt>
      <trkpt lat="35.852252870" lon="-106.504183000">
        <ele>2589.000</ele>
        <time>2019-02-12T18:40:13Z</time>
        <name>WPT.298</name>
      </trkpt>
      <trkpt lat="35.852231570" lon="-106.504229350">
        <ele>2591.000</ele>
        <time>2019-02-12T18:40:19Z</time>
        <name>WPT.299</name>
      </trkpt>
      <trkpt lat="35.852215910" lon="-106.504276180">
        <ele>2591.000</ele>
        <time>2019-02-12T18:40:25Z</time>
        <name>WPT.300</name>
      </trkpt>
      <trkpt lat="35.852199190" lon="-106.504317500">
        <ele>2591.000</ele>
        <time>2019-02-12T18:40:30Z</time>
        <name>WPT.301</name>
      </trkpt>
      <trkpt lat="35.852188520" lon="-106.504363340">
        <ele>2592.000</ele>
        <time>2019-02-12T18:40:36Z</time>
        <name>WPT.302</name>
      </trkpt>
      <trkpt lat="35.852177980" lon="-106.504410160">
        <ele>2591.000</ele>
        <time>2019-02-12T18:40:42Z</time>
        <name>WPT.303</name>
      </trkpt>
      <trkpt lat="35.852162470" lon="-106.504452120">
        <ele>2591.000</ele>
        <time>2019-02-12T18:40:47Z</time>
        <name>WPT.304</name>
      </trkpt>
      <trkpt lat="35.852149920" lon="-106.504500080">
        <ele>2591.000</ele>
        <time>2019-02-12T18:40:52Z</time>
        <name>WPT.305</name>
      </trkpt>
      <trkpt lat="35.852137430" lon="-106.504542950">
        <ele>2592.000</ele>
        <time>2019-02-12T18:41:00Z</time>
        <name>WPT.306</name>
      </trkpt>
      <trkpt lat="35.852147780" lon="-106.504498100">
        <ele>2592.000</ele>
        <time>2019-02-12T18:42:34Z</time>
        <name>WPT.307</name>
      </trkpt>
      <trkpt lat="35.852177270" lon="-106.504534940">
        <ele>2593.000</ele>
        <time>2019-02-12T18:44:18Z</time>
        <name>WPT.308</name>
      </trkpt>
      <trkpt lat="35.852200390" lon="-106.504577830">
        <ele>2593.000</ele>
        <time>2019-02-12T18:44:24Z</time>
        <name>WPT.309</name>
      </trkpt>
      <trkpt lat="35.852222980" lon="-106.504616820">
        <ele>2594.000</ele>
        <time>2019-02-12T18:44:30Z</time>
        <name>WPT.310</name>
      </trkpt>
      <trkpt lat="35.852237840" lon="-106.504664610">
        <ele>2595.000</ele>
        <time>2019-02-12T18:44:36Z</time>
        <name>WPT.311</name>
      </trkpt>
      <trkpt lat="35.852247580" lon="-106.504710570">
        <ele>2596.000</ele>
        <time>2019-02-12T18:44:40Z</time>
        <name>WPT.312</name>
      </trkpt>
      <trkpt lat="35.852263330" lon="-106.504755150">
        <ele>2597.000</ele>
        <time>2019-02-12T18:44:45Z</time>
        <name>WPT.313</name>
      </trkpt>
      <trkpt lat="35.852294130" lon="-106.504788670">
        <ele>2600.000</ele>
        <time>2019-02-12T18:44:51Z</time>
        <name>WPT.314</name>
      </trkpt>
      <trkpt lat="35.852330250" lon="-106.504795480">
        <ele>2599.000</ele>
        <time>2019-02-12T18:44:56Z</time>
        <name>WPT.315</name>
      </trkpt>
      <trkpt lat="35.852359020" lon="-106.504830080">
        <ele>2600.000</ele>
        <time>2019-02-12T18:45:01Z</time>
        <name>WPT.316</name>
      </trkpt>
      <trkpt lat="35.852385300" lon="-106.504866560">
        <ele>2601.000</ele>
        <time>2019-02-12T18:45:08Z</time>
        <name>WPT.317</name>
      </trkpt>
      <trkpt lat="35.852424470" lon="-106.504880940">
        <ele>2601.000</ele>
        <time>2019-02-12T18:45:13Z</time>
        <name>WPT.318</name>
      </trkpt>
      <trkpt lat="35.852454230" lon="-106.504916030">
        <ele>2601.000</ele>
        <time>2019-02-12T18:45:19Z</time>
        <name>WPT.319</name>
      </trkpt>
      <trkpt lat="35.852474910" lon="-106.504963380">
        <ele>2603.000</ele>
        <time>2019-02-12T18:45:24Z</time>
        <name>WPT.320</name>
      </trkpt>
      <trkpt lat="35.852508140" lon="-106.505001430">
        <ele>2602.000</ele>
        <time>2019-02-12T18:45:29Z</time>
        <name>WPT.321</name>
      </trkpt>
      <trkpt lat="35.852536520" lon="-106.505032930">
        <ele>2603.000</ele>
        <time>2019-02-12T18:45:34Z</time>
        <name>WPT.322</name>
      </trkpt>
      <trkpt lat="35.852564910" lon="-106.505061950">
        <ele>2603.000</ele>
        <time>2019-02-12T18:45:38Z</time>
        <name>WPT.323</name>
      </trkpt>
      <trkpt lat="35.852592860" lon="-106.505099480">
        <ele>2603.000</ele>
        <time>2019-02-12T18:45:43Z</time>
        <name>WPT.324</name>
      </trkpt>
      <trkpt lat="35.852614390" lon="-106.505135100">
        <ele>2603.000</ele>
        <time>2019-02-12T18:45:47Z</time>
        <name>WPT.325</name>
      </trkpt>
      <trkpt lat="35.852634380" lon="-106.505181310">
        <ele>2604.000</ele>
        <time>2019-02-12T18:45:52Z</time>
        <name>WPT.326</name>
      </trkpt>
      <trkpt lat="35.852654380" lon="-106.505219570">
        <ele>2604.000</ele>
        <time>2019-02-12T18:45:56Z</time>
        <name>WPT.327</name>
      </trkpt>
      <trkpt lat="35.852682560" lon="-106.505261800">
        <ele>2604.000</ele>
        <time>2019-02-12T18:46:01Z</time>
        <name>WPT.328</name>
      </trkpt>
      <trkpt lat="35.852707860" lon="-106.505295990">
        <ele>2604.000</ele>
        <time>2019-02-12T18:46:06Z</time>
        <name>WPT.329</name>
      </trkpt>
      <trkpt lat="35.852725320" lon="-106.505253080">
        <ele>2601.000</ele>
        <time>2019-02-12T18:46:08Z</time>
        <name>WPT.330</name>
      </trkpt>
      <trkpt lat="35.852756370" lon="-106.505283170">
        <ele>2601.000</ele>
        <time>2019-02-12T18:46:13Z</time>
        <name>WPT.331</name>
      </trkpt>
      <trkpt lat="35.852771750" lon="-106.505327070">
        <ele>2600.000</ele>
        <time>2019-02-12T18:46:17Z</time>
        <name>WPT.332</name>
      </trkpt>
      <trkpt lat="35.852792660" lon="-106.505373320">
        <ele>2601.000</ele>
        <time>2019-02-12T18:46:22Z</time>
        <name>WPT.333</name>
      </trkpt>
      <trkpt lat="35.852816830" lon="-106.505416800">
        <ele>2601.000</ele>
        <time>2019-02-12T18:46:27Z</time>
        <name>WPT.334</name>
      </trkpt>
      <trkpt lat="35.852836070" lon="-106.505454430">
        <ele>2601.000</ele>
        <time>2019-02-12T18:46:31Z</time>
        <name>WPT.335</name>
      </trkpt>
      <trkpt lat="35.852862640" lon="-106.505484980">
        <ele>2601.000</ele>
        <time>2019-02-12T18:46:35Z</time>
        <name>WPT.336</name>
      </trkpt>
      <trkpt lat="35.852885710" lon="-106.505537540">
        <ele>2602.000</ele>
        <time>2019-02-12T18:46:40Z</time>
        <name>WPT.337</name>
      </trkpt>
      <trkpt lat="35.852897510" lon="-106.505584230">
        <ele>2602.000</ele>
        <time>2019-02-12T18:46:44Z</time>
        <name>WPT.338</name>
      </trkpt>
      <trkpt lat="35.852909450" lon="-106.505627300">
        <ele>2603.000</ele>
        <time>2019-02-12T18:46:49Z</time>
        <name>WPT.339</name>
      </trkpt>
      <trkpt lat="35.852939490" lon="-106.505657420">
        <ele>2603.000</ele>
        <time>2019-02-12T18:46:55Z</time>
        <name>WPT.340</name>
      </trkpt>
      <trkpt lat="35.852978030" lon="-106.505650970">
        <ele>2603.000</ele>
        <time>2019-02-12T18:47:02Z</time>
        <name>WPT.341</name>
      </trkpt>
      <trkpt lat="35.853016140" lon="-106.505633090">
        <ele>2600.000</ele>
        <time>2019-02-12T18:49:33Z</time>
        <name>WPT.342</name>
      </trkpt>
      <trkpt lat="35.853055000" lon="-106.505638050">
        <ele>2600.000</ele>
        <time>2019-02-12T18:49:38Z</time>
        <name>WPT.343</name>
      </trkpt>
      <trkpt lat="35.853087240" lon="-106.505658210">
        <ele>2600.000</ele>
        <time>2019-02-12T18:49:44Z</time>
        <name>WPT.344</name>
      </trkpt>
      <trkpt lat="35.853116360" lon="-106.505688510">
        <ele>2600.000</ele>
        <time>2019-02-12T18:49:50Z</time>
        <name>WPT.345</name>
      </trkpt>
      <trkpt lat="35.853142870" lon="-106.505725850">
        <ele>2599.000</ele>
        <time>2019-02-12T18:49:56Z</time>
        <name>WPT.346</name>
      </trkpt>
      <trkpt lat="35.853160180" lon="-106.505769420">
        <ele>2598.000</ele>
        <time>2019-02-12T18:50:02Z</time>
        <name>WPT.347</name>
      </trkpt>
      <trkpt lat="35.853191390" lon="-106.505807350">
        <ele>2597.000</ele>
        <time>2019-02-12T18:50:08Z</time>
        <name>WPT.348</name>
      </trkpt>
      <trkpt lat="35.853227920" lon="-106.505829850">
        <ele>2596.000</ele>
        <time>2019-02-12T18:50:14Z</time>
        <name>WPT.349</name>
      </trkpt>
      <trkpt lat="35.853250720" lon="-106.505871070">
        <ele>2596.000</ele>
        <time>2019-02-12T18:50:21Z</time>
        <name>WPT.350</name>
      </trkpt>
      <trkpt lat="35.853284460" lon="-106.505893710">
        <ele>2596.000</ele>
        <time>2019-02-12T18:50:29Z</time>
        <name>WPT.351</name>
      </trkpt>
      <trkpt lat="35.853320360" lon="-106.505920470">
        <ele>2596.000</ele>
        <time>2019-02-12T18:50:35Z</time>
        <name>WPT.352</name>
      </trkpt>
      <trkpt lat="35.853352740" lon="-106.505949280">
        <ele>2595.000</ele>
        <time>2019-02-12T18:50:41Z</time>
        <name>WPT.353</name>
      </trkpt>
      <trkpt lat="35.853382640" lon="-106.505987460">
        <ele>2593.000</ele>
        <time>2019-02-12T18:50:46Z</time>
        <name>WPT.354</name>
      </trkpt>
      <trkpt lat="35.853410980" lon="-106.506018710">
        <ele>2593.000</ele>
        <time>2019-02-12T18:50:53Z</time>
        <name>WPT.355</name>
      </trkpt>
      <trkpt lat="35.853447710" lon="-106.506043450">
        <ele>2590.000</ele>
        <time>2019-02-12T18:50:59Z</time>
        <name>WPT.356</name>
      </trkpt>
      <trkpt lat="35.853483060" lon="-106.506069670">
        <ele>2589.000</ele>
        <time>2019-02-12T18:51:04Z</time>
        <name>WPT.357</name>
      </trkpt>
      <trkpt lat="35.853522290" lon="-106.506072330">
        <ele>2590.000</ele>
        <time>2019-02-12T18:52:07Z</time>
        <name>WPT.358</name>
      </trkpt>
      <trkpt lat="35.853556060" lon="-106.506093840">
        <ele>2591.000</ele>
        <time>2019-02-12T18:53:17Z</time>
        <name>WPT.359</name>
      </trkpt>
      <trkpt lat="35.853595550" lon="-106.506095080">
        <ele>2591.000</ele>
        <time>2019-02-12T18:53:24Z</time>
        <name>WPT.360</name>
      </trkpt>
      <trkpt lat="35.853615120" lon="-106.506134820">
        <ele>2592.000</ele>
        <time>2019-02-12T18:53:42Z</time>
        <name>WPT.361</name>
      </trkpt>
      <trkpt lat="35.853651690" lon="-106.506132740">
        <ele>2592.000</ele>
        <time>2019-02-12T18:55:08Z</time>
        <name>WPT.362</name>
      </trkpt>
      <trkpt lat="35.853689810" lon="-106.506110420">
        <ele>2591.000</ele>
        <time>2019-02-12T18:55:13Z</time>
        <name>WPT.363</name>
      </trkpt>
      <trkpt lat="35.853722850" lon="-106.506085650">
        <ele>2590.000</ele>
        <time>2019-02-12T18:55:19Z</time>
        <name>WPT.364</name>
      </trkpt>
      <trkpt lat="35.853754220" lon="-106.506060620">
        <ele>2589.000</ele>
        <time>2019-02-12T18:56:27Z</time>
        <name>WPT.365</name>
      </trkpt>
      <trkpt lat="35.853781530" lon="-106.506028110">
        <ele>2587.000</ele>
        <time>2019-02-12T18:56:32Z</time>
        <name>WPT.366</name>
      </trkpt>
      <trkpt lat="35.853812460" lon="-106.505992670">
        <ele>2587.000</ele>
        <time>2019-02-12T18:56:39Z</time>
        <name>WPT.367</name>
      </trkpt>
      <trkpt lat="35.853839380" lon="-106.505953470">
        <ele>2586.000</ele>
        <time>2019-02-12T18:56:48Z</time>
        <name>WPT.368</name>
      </trkpt>
      <trkpt lat="35.853864740" lon="-106.505920650">
        <ele>2586.000</ele>
        <time>2019-02-12T18:56:53Z</time>
        <name>WPT.369</name>
      </trkpt>
      <trkpt lat="35.853883180" lon="-106.505879510">
        <ele>2584.000</ele>
        <time>2019-02-12T18:56:59Z</time>
        <name>WPT.370</name>
      </trkpt>
      <trkpt lat="35.853909760" lon="-106.505843560">
        <ele>2583.000</ele>
        <time>2019-02-12T18:57:04Z</time>
        <name>WPT.371</name>
      </trkpt>
      <trkpt lat="35.853943510" lon="-106.505819000">
        <ele>2584.000</ele>
        <time>2019-02-12T18:57:09Z</time>
        <name>WPT.372</name>
      </trkpt>
      <trkpt lat="35.853967090" lon="-106.505779840">
        <ele>2585.000</ele>
        <time>2019-02-12T18:57:14Z</time>
        <name>WPT.373</name>
      </trkpt>
      <trkpt lat="35.853986080" lon="-106.505736210">
        <ele>2584.000</ele>
        <time>2019-02-12T18:57:19Z</time>
        <name>WPT.374</name>
      </trkpt>
      <trkpt lat="35.854008530" lon="-106.505690140">
        <ele>2585.000</ele>
        <time>2019-02-12T18:57:24Z</time>
        <name>WPT.375</name>
      </trkpt>
      <trkpt lat="35.854020100" lon="-106.505643760">
        <ele>2585.000</ele>
        <time>2019-02-12T18:57:29Z</time>
        <name>WPT.376</name>
      </trkpt>
      <trkpt lat="35.854044260" lon="-106.505602450">
        <ele>2585.000</ele>
        <time>2019-02-12T18:57:34Z</time>
        <name>WPT.377</name>
      </trkpt>
      <trkpt lat="35.854064820" lon="-106.505560890">
        <ele>2584.000</ele>
        <time>2019-02-12T18:57:39Z</time>
        <name>WPT.378</name>
      </trkpt>
      <trkpt lat="35.854081390" lon="-106.505518940">
        <ele>2584.000</ele>
        <time>2019-02-12T18:57:44Z</time>
        <name>WPT.379</name>
      </trkpt>
      <trkpt lat="35.854098420" lon="-106.505469090">
        <ele>2584.000</ele>
        <time>2019-02-12T18:57:49Z</time>
        <name>WPT.380</name>
      </trkpt>
      <trkpt lat="35.854119500" lon="-106.505433150">
        <ele>2584.000</ele>
        <time>2019-02-12T18:57:54Z</time>
        <name>WPT.381</name>
      </trkpt>
      <trkpt lat="35.854140180" lon="-106.505392710">
        <ele>2583.000</ele>
        <time>2019-02-12T18:57:59Z</time>
        <name>WPT.382</name>
      </trkpt>
      <trkpt lat="35.854156350" lon="-106.505349330">
        <ele>2583.000</ele>
        <time>2019-02-12T18:58:04Z</time>
        <name>WPT.383</name>
      </trkpt>
      <trkpt lat="35.854158460" lon="-106.505301170">
        <ele>2583.000</ele>
        <time>2019-02-12T18:58:27Z</time>
        <name>WPT.384</name>
      </trkpt>
      <trkpt lat="35.854172670" lon="-106.505256910">
        <ele>2583.000</ele>
        <time>2019-02-12T18:58:32Z</time>
        <name>WPT.385</name>
      </trkpt>
      <trkpt lat="35.854194120" lon="-106.505220520">
        <ele>2582.000</ele>
        <time>2019-02-12T18:58:37Z</time>
        <name>WPT.386</name>
      </trkpt>
      <trkpt lat="35.854203280" lon="-106.505174940">
        <ele>2583.000</ele>
        <time>2019-02-12T18:58:42Z</time>
        <name>WPT.387</name>
      </trkpt>
      <trkpt lat="35.854224360" lon="-106.505130740">
        <ele>2582.000</ele>
        <time>2019-02-12T18:58:47Z</time>
        <name>WPT.388</name>
      </trkpt>
      <trkpt lat="35.854245460" lon="-106.505091550">
        <ele>2582.000</ele>
        <time>2019-02-12T18:58:52Z</time>
        <name>WPT.389</name>
      </trkpt>
      <trkpt lat="35.854254650" lon="-106.505046910">
        <ele>2581.000</ele>
        <time>2019-02-12T18:59:03Z</time>
        <name>WPT.390</name>
      </trkpt>
      <trkpt lat="35.854276130" lon="-106.505007940">
        <ele>2582.000</ele>
        <time>2019-02-12T18:59:07Z</time>
        <name>WPT.391</name>
      </trkpt>
      <trkpt lat="35.854289160" lon="-106.504965010">
        <ele>2582.000</ele>
        <time>2019-02-12T18:59:12Z</time>
        <name>WPT.392</name>
      </trkpt>
      <trkpt lat="35.854311360" lon="-106.504921830">
        <ele>2582.000</ele>
        <time>2019-02-12T18:59:16Z</time>
        <name>WPT.393</name>
      </trkpt>
      <trkpt lat="35.854331550" lon="-106.504884910">
        <ele>2582.000</ele>
        <time>2019-02-12T18:59:20Z</time>
        <name>WPT.394</name>
      </trkpt>
      <trkpt lat="35.854355620" lon="-106.504838080">
        <ele>2582.000</ele>
        <time>2019-02-12T18:59:25Z</time>
        <name>WPT.395</name>
      </trkpt>
      <trkpt lat="35.854370600" lon="-106.504788040">
        <ele>2582.000</ele>
        <time>2019-02-12T18:59:30Z</time>
        <name>WPT.396</name>
      </trkpt>
      <trkpt lat="35.854387810" lon="-106.504743260">
        <ele>2582.000</ele>
        <time>2019-02-12T18:59:35Z</time>
        <name>WPT.397</name>
      </trkpt>
      <trkpt lat="35.854402340" lon="-106.504702200">
        <ele>2582.000</ele>
        <time>2019-02-12T18:59:40Z</time>
        <name>WPT.398</name>
      </trkpt>
      <trkpt lat="35.854424010" lon="-106.504655730">
        <ele>2583.000</ele>
        <time>2019-02-12T18:59:45Z</time>
        <name>WPT.399</name>
      </trkpt>
      <trkpt lat="35.854441510" lon="-106.504608640">
        <ele>2582.000</ele>
        <time>2019-02-12T18:59:51Z</time>
        <name>WPT.400</name>
      </trkpt>
      <trkpt lat="35.854456370" lon="-106.504562630">
        <ele>2582.000</ele>
        <time>2019-02-12T18:59:58Z</time>
        <name>WPT.401</name>
      </trkpt>
      <trkpt lat="35.854475000" lon="-106.504519760">
        <ele>2582.000</ele>
        <time>2019-02-12T19:00:04Z</time>
        <name>WPT.402</name>
      </trkpt>
      <trkpt lat="35.854490440" lon="-106.504473500">
        <ele>2582.000</ele>
        <time>2019-02-12T19:00:09Z</time>
        <name>WPT.403</name>
      </trkpt>
      <trkpt lat="35.854518110" lon="-106.504432350">
        <ele>2582.000</ele>
        <time>2019-02-12T19:00:14Z</time>
        <name>WPT.404</name>
      </trkpt>
      <trkpt lat="35.854534800" lon="-106.504388850">
        <ele>2583.000</ele>
        <time>2019-02-12T19:00:19Z</time>
        <name>WPT.405</name>
      </trkpt>
      <trkpt lat="35.854552430" lon="-106.504348080">
        <ele>2583.000</ele>
        <time>2019-02-12T19:00:23Z</time>
        <name>WPT.406</name>
      </trkpt>
      <trkpt lat="35.854574420" lon="-106.504311420">
        <ele>2583.000</ele>
        <time>2019-02-12T19:00:27Z</time>
        <name>WPT.407</name>
      </trkpt>
      <trkpt lat="35.854587180" lon="-106.504257580">
        <ele>2583.000</ele>
        <time>2019-02-12T19:00:32Z</time>
        <name>WPT.408</name>
      </trkpt>
      <trkpt lat="35.854608500" lon="-106.504212740">
        <ele>2583.000</ele>
        <time>2019-02-12T19:00:37Z</time>
        <name>WPT.409</name>
      </trkpt>
      <trkpt lat="35.854627160" lon="-106.504162680">
        <ele>2583.000</ele>
        <time>2019-02-12T19:00:42Z</time>
        <name>WPT.410</name>
      </trkpt>
      <trkpt lat="35.854649040" lon="-106.504113420">
        <ele>2584.000</ele>
        <time>2019-02-12T19:00:47Z</time>
        <name>WPT.411</name>
      </trkpt>
      <trkpt lat="35.854673790" lon="-106.504074120">
        <ele>2584.000</ele>
        <time>2019-02-12T19:00:52Z</time>
        <name>WPT.412</name>
      </trkpt>
      <trkpt lat="35.854699050" lon="-106.504038440">
        <ele>2585.000</ele>
        <time>2019-02-12T19:00:56Z</time>
        <name>WPT.413</name>
      </trkpt>
      <trkpt lat="35.854713220" lon="-106.503989920">
        <ele>2584.000</ele>
        <time>2019-02-12T19:01:01Z</time>
        <name>WPT.414</name>
      </trkpt>
      <trkpt lat="35.854734700" lon="-106.503944580">
        <ele>2585.000</ele>
        <time>2019-02-12T19:01:06Z</time>
        <name>WPT.415</name>
      </trkpt>
      <trkpt lat="35.854746730" lon="-106.503899330">
        <ele>2585.000</ele>
        <time>2019-02-12T19:01:10Z</time>
        <name>WPT.416</name>
      </trkpt>
      <trkpt lat="35.854775840" lon="-106.503858190">
        <ele>2584.000</ele>
        <time>2019-02-12T19:01:15Z</time>
        <name>WPT.417</name>
      </trkpt>
      <trkpt lat="35.854792320" lon="-106.503813080">
        <ele>2585.000</ele>
        <time>2019-02-12T19:01:19Z</time>
        <name>WPT.418</name>
      </trkpt>
      <trkpt lat="35.854799500" lon="-106.503761360">
        <ele>2583.000</ele>
        <time>2019-02-12T19:01:25Z</time>
        <name>WPT.419</name>
      </trkpt>
      <trkpt lat="35.854817630" lon="-106.503721930">
        <ele>2583.000</ele>
        <time>2019-02-12T19:01:29Z</time>
        <name>WPT.420</name>
      </trkpt>
      <trkpt lat="35.854820790" lon="-106.503672120">
        <ele>2582.000</ele>
        <time>2019-02-12T19:01:34Z</time>
        <name>WPT.421</name>
      </trkpt>
      <trkpt lat="35.854832600" lon="-106.503624470">
        <ele>2581.000</ele>
        <time>2019-02-12T19:01:43Z</time>
        <name>WPT.422</name>
      </trkpt>
      <trkpt lat="35.854845750" lon="-106.503578030">
        <ele>2582.000</ele>
        <time>2019-02-12T19:01:48Z</time>
        <name>WPT.423</name>
      </trkpt>
      <trkpt lat="35.854859350" lon="-106.503533400">
        <ele>2581.000</ele>
        <time>2019-02-12T19:01:53Z</time>
        <name>WPT.424</name>
      </trkpt>
      <trkpt lat="35.854881120" lon="-106.503490480">
        <ele>2582.000</ele>
        <time>2019-02-12T19:01:58Z</time>
        <name>WPT.425</name>
      </trkpt>
      <trkpt lat="35.854903520" lon="-106.503445700">
        <ele>2581.000</ele>
        <time>2019-02-12T19:02:03Z</time>
        <name>WPT.426</name>
      </trkpt>
      <trkpt lat="35.854917770" lon="-106.503401710">
        <ele>2581.000</ele>
        <time>2019-02-12T19:02:08Z</time>
        <name>WPT.427</name>
      </trkpt>
      <trkpt lat="35.854932290" lon="-106.503352290">
        <ele>2581.000</ele>
        <time>2019-02-12T19:02:13Z</time>
        <name>WPT.428</name>
      </trkpt>
      <trkpt lat="35.854950690" lon="-106.503314040">
        <ele>2581.000</ele>
        <time>2019-02-12T19:02:17Z</time>
        <name>WPT.429</name>
      </trkpt>
      <trkpt lat="35.854961320" lon="-106.503270930">
        <ele>2581.000</ele>
        <time>2019-02-12T19:02:21Z</time>
        <name>WPT.430</name>
      </trkpt>
      <trkpt lat="35.854978500" lon="-106.503230290">
        <ele>2580.000</ele>
        <time>2019-02-12T19:02:26Z</time>
        <name>WPT.431</name>
      </trkpt>
      <trkpt lat="35.855002500" lon="-106.503186490">
        <ele>2580.000</ele>
        <time>2019-02-12T19:02:31Z</time>
        <name>WPT.432</name>
      </trkpt>
      <trkpt lat="35.855019970" lon="-106.503141650">
        <ele>2580.000</ele>
        <time>2019-02-12T19:02:35Z</time>
        <name>WPT.433</name>
      </trkpt>
      <trkpt lat="35.855038140" lon="-106.503096350">
        <ele>2581.000</ele>
        <time>2019-02-12T19:02:40Z</time>
        <name>WPT.434</name>
      </trkpt>
      <trkpt lat="35.855058900" lon="-106.503048270">
        <ele>2581.000</ele>
        <time>2019-02-12T19:02:45Z</time>
        <name>WPT.435</name>
      </trkpt>
      <trkpt lat="35.855079660" lon="-106.503002050">
        <ele>2581.000</ele>
        <time>2019-02-12T19:02:50Z</time>
        <name>WPT.436</name>
      </trkpt>
      <trkpt lat="35.855101370" lon="-106.502966310">
        <ele>2581.000</ele>
        <time>2019-02-12T19:02:54Z</time>
        <name>WPT.437</name>
      </trkpt>
      <trkpt lat="35.855118830" lon="-106.502913920">
        <ele>2581.000</ele>
        <time>2019-02-12T19:02:59Z</time>
        <name>WPT.438</name>
      </trkpt>
      <trkpt lat="35.855137320" lon="-106.502875000">
        <ele>2581.000</ele>
        <time>2019-02-12T19:03:03Z</time>
        <name>WPT.439</name>
      </trkpt>
      <trkpt lat="35.855163000" lon="-106.502831940">
        <ele>2581.000</ele>
        <time>2019-02-12T19:03:07Z</time>
        <name>WPT.440</name>
      </trkpt>
      <trkpt lat="35.855170100" lon="-106.502783840">
        <ele>2580.000</ele>
        <time>2019-02-12T19:03:12Z</time>
        <name>WPT.441</name>
      </trkpt>
      <trkpt lat="35.855188320" lon="-106.502738710">
        <ele>2580.000</ele>
        <time>2019-02-12T19:03:16Z</time>
        <name>WPT.442</name>
      </trkpt>
      <trkpt lat="35.855215720" lon="-106.502700440">
        <ele>2581.000</ele>
        <time>2019-02-12T19:03:21Z</time>
        <name>WPT.443</name>
      </trkpt>
      <trkpt lat="35.855231720" lon="-106.502659600">
        <ele>2581.000</ele>
        <time>2019-02-12T19:03:25Z</time>
        <name>WPT.444</name>
      </trkpt>
      <trkpt lat="35.855241180" lon="-106.502615660">
        <ele>2578.000</ele>
        <time>2019-02-12T19:04:29Z</time>
        <name>WPT.445</name>
      </trkpt>
      <trkpt lat="35.855247360" lon="-106.502571390">
        <ele>2578.000</ele>
        <time>2019-02-12T19:04:35Z</time>
        <name>WPT.446</name>
      </trkpt>
      <trkpt lat="35.855281120" lon="-106.502543620">
        <ele>2577.000</ele>
        <time>2019-02-12T19:05:33Z</time>
        <name>WPT.447</name>
      </trkpt>
      <trkpt lat="35.855312180" lon="-106.502516070">
        <ele>2578.000</ele>
        <time>2019-02-12T19:05:45Z</time>
        <name>WPT.448</name>
      </trkpt>
      <trkpt lat="35.855344380" lon="-106.502483560">
        <ele>2579.000</ele>
        <time>2019-02-12T19:06:46Z</time>
        <name>WPT.449</name>
      </trkpt>
      <trkpt lat="35.855359440" lon="-106.502436320">
        <ele>2579.000</ele>
        <time>2019-02-12T19:06:51Z</time>
        <name>WPT.450</name>
      </trkpt>
      <trkpt lat="35.855368230" lon="-106.502389080">
        <ele>2579.000</ele>
        <time>2019-02-12T19:06:55Z</time>
        <name>WPT.451</name>
      </trkpt>
      <trkpt lat="35.855371990" lon="-106.502344950">
        <ele>2579.000</ele>
        <time>2019-02-12T19:06:59Z</time>
        <name>WPT.452</name>
      </trkpt>
      <trkpt lat="35.855383070" lon="-106.502294780">
        <ele>2578.000</ele>
        <time>2019-02-12T19:07:04Z</time>
        <name>WPT.453</name>
      </trkpt>
      <trkpt lat="35.855401160" lon="-106.502251370">
        <ele>2578.000</ele>
        <time>2019-02-12T19:07:08Z</time>
        <name>WPT.454</name>
      </trkpt>
      <trkpt lat="35.855407820" lon="-106.502196880">
        <ele>2578.000</ele>
        <time>2019-02-12T19:07:13Z</time>
        <name>WPT.455</name>
      </trkpt>
      <trkpt lat="35.855420330" lon="-106.502148050">
        <ele>2578.000</ele>
        <time>2019-02-12T19:07:18Z</time>
        <name>WPT.456</name>
      </trkpt>
      <trkpt lat="35.855437550" lon="-106.502098980">
        <ele>2578.000</ele>
        <time>2019-02-12T19:07:23Z</time>
        <name>WPT.457</name>
      </trkpt>
      <trkpt lat="35.855451710" lon="-106.502054710">
        <ele>2579.000</ele>
        <time>2019-02-12T19:07:28Z</time>
        <name>WPT.458</name>
      </trkpt>
      <trkpt lat="35.855471200" lon="-106.502010540">
        <ele>2578.000</ele>
        <time>2019-02-12T19:07:32Z</time>
        <name>WPT.459</name>
      </trkpt>
      <trkpt lat="35.855495930" lon="-106.501967350">
        <ele>2578.000</ele>
        <time>2019-02-12T19:07:37Z</time>
        <name>WPT.460</name>
      </trkpt>
      <trkpt lat="35.855510900" lon="-106.501923570">
        <ele>2579.000</ele>
        <time>2019-02-12T19:07:42Z</time>
        <name>WPT.461</name>
      </trkpt>
      <trkpt lat="35.855531470" lon="-106.501873320">
        <ele>2579.000</ele>
        <time>2019-02-12T19:07:47Z</time>
        <name>WPT.462</name>
      </trkpt>
      <trkpt lat="35.855551180" lon="-106.501830810">
        <ele>2578.000</ele>
        <time>2019-02-12T19:07:52Z</time>
        <name>WPT.463</name>
      </trkpt>
      <trkpt lat="35.855568840" lon="-106.501789530">
        <ele>2578.000</ele>
        <time>2019-02-12T19:07:56Z</time>
        <name>WPT.464</name>
      </trkpt>
      <trkpt lat="35.855587860" lon="-106.501750020">
        <ele>2578.000</ele>
        <time>2019-02-12T19:08:00Z</time>
        <name>WPT.465</name>
      </trkpt>
      <trkpt lat="35.855601070" lon="-106.501699990">
        <ele>2578.000</ele>
        <time>2019-02-12T19:08:05Z</time>
        <name>WPT.466</name>
      </trkpt>
      <trkpt lat="35.855616840" lon="-106.501656230">
        <ele>2578.000</ele>
        <time>2019-02-12T19:08:10Z</time>
        <name>WPT.467</name>
      </trkpt>
      <trkpt lat="35.855636430" lon="-106.501610570">
        <ele>2578.000</ele>
        <time>2019-02-12T19:08:15Z</time>
        <name>WPT.468</name>
      </trkpt>
      <trkpt lat="35.855653090" lon="-106.501569090">
        <ele>2578.000</ele>
        <time>2019-02-12T19:08:19Z</time>
        <name>WPT.469</name>
      </trkpt>
      <trkpt lat="35.855671970" lon="-106.501520040">
        <ele>2579.000</ele>
        <time>2019-02-12T19:08:24Z</time>
        <name>WPT.470</name>
      </trkpt>
      <trkpt lat="35.855679850" lon="-106.501476800">
        <ele>2577.000</ele>
        <time>2019-02-12T19:08:29Z</time>
        <name>WPT.471</name>
      </trkpt>
      <trkpt lat="35.855695000" lon="-106.501435740">
        <ele>2578.000</ele>
        <time>2019-02-12T19:08:34Z</time>
        <name>WPT.472</name>
      </trkpt>
      <trkpt lat="35.855709820" lon="-106.501393360">
        <ele>2578.000</ele>
        <time>2019-02-12T19:08:39Z</time>
        <name>WPT.473</name>
      </trkpt>
      <trkpt lat="35.855729530" lon="-106.501347090">
        <ele>2579.000</ele>
        <time>2019-02-12T19:08:44Z</time>
        <name>WPT.474</name>
      </trkpt>
      <trkpt lat="35.855749700" lon="-106.501307780">
        <ele>2579.000</ele>
        <time>2019-02-12T19:08:48Z</time>
        <name>WPT.475</name>
      </trkpt>
      <trkpt lat="35.855771460" lon="-106.501260680">
        <ele>2578.000</ele>
        <time>2019-02-12T19:08:53Z</time>
        <name>WPT.476</name>
      </trkpt>
      <trkpt lat="35.855793390" lon="-106.501214590">
        <ele>2579.000</ele>
        <time>2019-02-12T19:08:58Z</time>
        <name>WPT.477</name>
      </trkpt>
      <trkpt lat="35.855812570" lon="-106.501167270">
        <ele>2579.000</ele>
        <time>2019-02-12T19:09:04Z</time>
        <name>WPT.478</name>
      </trkpt>
      <trkpt lat="35.855825000" lon="-106.501123350">
        <ele>2578.000</ele>
        <time>2019-02-12T19:09:09Z</time>
        <name>WPT.479</name>
      </trkpt>
      <trkpt lat="35.855848170" lon="-106.501075290">
        <ele>2579.000</ele>
        <time>2019-02-12T19:09:15Z</time>
        <name>WPT.480</name>
      </trkpt>
      <trkpt lat="35.855858670" lon="-106.501032080">
        <ele>2580.000</ele>
        <time>2019-02-12T19:09:20Z</time>
        <name>WPT.481</name>
      </trkpt>
      <trkpt lat="35.855871750" lon="-106.500983090">
        <ele>2580.000</ele>
        <time>2019-02-12T19:09:25Z</time>
        <name>WPT.482</name>
      </trkpt>
      <trkpt lat="35.855891830" lon="-106.500939610">
        <ele>2579.000</ele>
        <time>2019-02-12T19:09:30Z</time>
        <name>WPT.483</name>
      </trkpt>
      <trkpt lat="35.855896940" lon="-106.500891410">
        <ele>2580.000</ele>
        <time>2019-02-12T19:09:48Z</time>
        <name>WPT.484</name>
      </trkpt>
      <trkpt lat="35.855914260" lon="-106.500851970">
        <ele>2581.000</ele>
        <time>2019-02-12T19:09:52Z</time>
        <name>WPT.485</name>
      </trkpt>
      <trkpt lat="35.855927140" lon="-106.500798950">
        <ele>2580.000</ele>
        <time>2019-02-12T19:09:58Z</time>
        <name>WPT.486</name>
      </trkpt>
      <trkpt lat="35.855945320" lon="-106.500749780">
        <ele>2580.000</ele>
        <time>2019-02-12T19:10:03Z</time>
        <name>WPT.487</name>
      </trkpt>
      <trkpt lat="35.855960740" lon="-106.500701520">
        <ele>2580.000</ele>
        <time>2019-02-12T19:10:08Z</time>
        <name>WPT.488</name>
      </trkpt>
      <trkpt lat="35.855974680" lon="-106.500656830">
        <ele>2579.000</ele>
        <time>2019-02-12T19:10:12Z</time>
        <name>WPT.489</name>
      </trkpt>
      <trkpt lat="35.855990300" lon="-106.500608630">
        <ele>2579.000</ele>
        <time>2019-02-12T19:10:17Z</time>
        <name>WPT.490</name>
      </trkpt>
      <trkpt lat="35.856006810" lon="-106.500564080">
        <ele>2580.000</ele>
        <time>2019-02-12T19:10:22Z</time>
        <name>WPT.491</name>
      </trkpt>
      <trkpt lat="35.856019220" lon="-106.500519130">
        <ele>2580.000</ele>
        <time>2019-02-12T19:10:27Z</time>
        <name>WPT.492</name>
      </trkpt>
      <trkpt lat="35.856029640" lon="-106.500470530">
        <ele>2580.000</ele>
        <time>2019-02-12T19:10:32Z</time>
        <name>WPT.493</name>
      </trkpt>
      <trkpt lat="35.856049840" lon="-106.500433420">
        <ele>2581.000</ele>
        <time>2019-02-12T19:10:36Z</time>
        <name>WPT.494</name>
      </trkpt>
      <trkpt lat="35.856070920" lon="-106.500391480">
        <ele>2580.000</ele>
        <time>2019-02-12T19:10:41Z</time>
        <name>WPT.495</name>
      </trkpt>
      <trkpt lat="35.856086680" lon="-106.500348670">
        <ele>2580.000</ele>
        <time>2019-02-12T19:10:46Z</time>
        <name>WPT.496</name>
      </trkpt>
      <trkpt lat="35.856103660" lon="-106.500301950">
        <ele>2580.000</ele>
        <time>2019-02-12T19:10:51Z</time>
        <name>WPT.497</name>
      </trkpt>
      <trkpt lat="35.856117310" lon="-106.500258550">
        <ele>2580.000</ele>
        <time>2019-02-12T19:11:10Z</time>
        <name>WPT.498</name>
      </trkpt>
      <trkpt lat="35.856132560" lon="-106.500218110">
        <ele>2581.000</ele>
        <time>2019-02-12T19:11:14Z</time>
        <name>WPT.499</name>
      </trkpt>
      <trkpt lat="35.856148280" lon="-106.500177330">
        <ele>2581.000</ele>
        <time>2019-02-12T19:11:18Z</time>
        <name>WPT.500</name>
      </trkpt>
      <trkpt lat="35.856161340" lon="-106.500135530">
        <ele>2580.000</ele>
        <time>2019-02-12T19:11:22Z</time>
        <name>WPT.501</name>
      </trkpt>
      <trkpt lat="35.856177400" lon="-106.500093510">
        <ele>2580.000</ele>
        <time>2019-02-12T19:11:27Z</time>
        <name>WPT.502</name>
      </trkpt>
      <trkpt lat="35.856189780" lon="-106.500045990">
        <ele>2581.000</ele>
        <time>2019-02-12T19:11:32Z</time>
        <name>WPT.503</name>
      </trkpt>
      <trkpt lat="35.856206650" lon="-106.500005800">
        <ele>2580.000</ele>
        <time>2019-02-12T19:11:37Z</time>
        <name>WPT.504</name>
      </trkpt>
      <trkpt lat="35.856227630" lon="-106.499968190">
        <ele>2580.000</ele>
        <time>2019-02-12T19:11:44Z</time>
        <name>WPT.505</name>
      </trkpt>
      <trkpt lat="35.856242770" lon="-106.499924530">
        <ele>2580.000</ele>
        <time>2019-02-12T19:11:49Z</time>
        <name>WPT.506</name>
      </trkpt>
      <trkpt lat="35.856266210" lon="-106.499887600">
        <ele>2580.000</ele>
        <time>2019-02-12T19:11:53Z</time>
        <name>WPT.507</name>
      </trkpt>
      <trkpt lat="35.856286260" lon="-106.499843240">
        <ele>2580.000</ele>
        <time>2019-02-12T19:11:58Z</time>
        <name>WPT.508</name>
      </trkpt>
      <trkpt lat="35.856305220" lon="-106.499802530">
        <ele>2580.000</ele>
        <time>2019-02-12T19:12:02Z</time>
        <name>WPT.509</name>
      </trkpt>
      <trkpt lat="35.856328660" lon="-106.499756310">
        <ele>2580.000</ele>
        <time>2019-02-12T19:12:07Z</time>
        <name>WPT.510</name>
      </trkpt>
      <trkpt lat="35.856341190" lon="-106.499713090">
        <ele>2580.000</ele>
        <time>2019-02-12T19:12:11Z</time>
        <name>WPT.511</name>
      </trkpt>
      <trkpt lat="35.856343370" lon="-106.499668790">
        <ele>2580.000</ele>
        <time>2019-02-12T19:12:15Z</time>
        <name>WPT.512</name>
      </trkpt>
      <trkpt lat="35.856361110" lon="-106.499619770">
        <ele>2580.000</ele>
        <time>2019-02-12T19:12:20Z</time>
        <name>WPT.513</name>
      </trkpt>
      <trkpt lat="35.856382500" lon="-106.499570350">
        <ele>2580.000</ele>
        <time>2019-02-12T19:12:25Z</time>
        <name>WPT.514</name>
      </trkpt>
      <trkpt lat="35.856395720" lon="-106.499527240">
        <ele>2580.000</ele>
        <time>2019-02-12T19:12:30Z</time>
        <name>WPT.515</name>
      </trkpt>
      <trkpt lat="35.856417690" lon="-106.499485330">
        <ele>2580.000</ele>
        <time>2019-02-12T19:12:35Z</time>
        <name>WPT.516</name>
      </trkpt>
      <trkpt lat="35.856428280" lon="-106.499434830">
        <ele>2580.000</ele>
        <time>2019-02-12T19:12:41Z</time>
        <name>WPT.517</name>
      </trkpt>
      <trkpt lat="35.856450770" lon="-106.499393400">
        <ele>2579.000</ele>
        <time>2019-02-12T19:12:46Z</time>
        <name>WPT.518</name>
      </trkpt>
      <trkpt lat="35.856473510" lon="-106.499350630">
        <ele>2578.000</ele>
        <time>2019-02-12T19:12:52Z</time>
        <name>WPT.519</name>
      </trkpt>
      <trkpt lat="35.856496360" lon="-106.499313710">
        <ele>2578.000</ele>
        <time>2019-02-12T19:12:57Z</time>
        <name>WPT.520</name>
      </trkpt>
      <trkpt lat="35.856516640" lon="-106.499269770">
        <ele>2579.000</ele>
        <time>2019-02-12T19:13:02Z</time>
        <name>WPT.521</name>
      </trkpt>
      <trkpt lat="35.856528520" lon="-106.499222510">
        <ele>2579.000</ele>
        <time>2019-02-12T19:13:07Z</time>
        <name>WPT.522</name>
      </trkpt>
      <trkpt lat="35.856547140" lon="-106.499177820">
        <ele>2579.000</ele>
        <time>2019-02-12T19:13:12Z</time>
        <name>WPT.523</name>
      </trkpt>
      <trkpt lat="35.856564950" lon="-106.499137130">
        <ele>2580.000</ele>
        <time>2019-02-12T19:13:16Z</time>
        <name>WPT.524</name>
      </trkpt>
      <trkpt lat="35.856584750" lon="-106.499099830">
        <ele>2580.000</ele>
        <time>2019-02-12T19:13:20Z</time>
        <name>WPT.525</name>
      </trkpt>
      <trkpt lat="35.856606760" lon="-106.499055430">
        <ele>2580.000</ele>
        <time>2019-02-12T19:13:25Z</time>
        <name>WPT.526</name>
      </trkpt>
      <trkpt lat="35.856626490" lon="-106.499013900">
        <ele>2580.000</ele>
        <time>2019-02-12T19:13:30Z</time>
        <name>WPT.527</name>
      </trkpt>
      <trkpt lat="35.856644480" lon="-106.498965210">
        <ele>2580.000</ele>
        <time>2019-02-12T19:13:35Z</time>
        <name>WPT.528</name>
      </trkpt>
      <trkpt lat="35.856660740" lon="-106.498917380">
        <ele>2580.000</ele>
        <time>2019-02-12T19:13:40Z</time>
        <name>WPT.529</name>
      </trkpt>
      <trkpt lat="35.856678970" lon="-106.498874430">
        <ele>2580.000</ele>
        <time>2019-02-12T19:13:45Z</time>
        <name>WPT.530</name>
      </trkpt>
      <trkpt lat="35.856695290" lon="-106.498831390">
        <ele>2580.000</ele>
        <time>2019-02-12T19:13:50Z</time>
        <name>WPT.531</name>
      </trkpt>
      <trkpt lat="35.856718810" lon="-106.498784240">
        <ele>2581.000</ele>
        <time>2019-02-12T19:13:56Z</time>
        <name>WPT.532</name>
      </trkpt>
      <trkpt lat="35.856734400" lon="-106.498734030">
        <ele>2581.000</ele>
        <time>2019-02-12T19:14:01Z</time>
        <name>WPT.533</name>
      </trkpt>
      <trkpt lat="35.856755440" lon="-106.498696250">
        <ele>2581.000</ele>
        <time>2019-02-12T19:14:06Z</time>
        <name>WPT.534</name>
      </trkpt>
      <trkpt lat="35.856772990" lon="-106.498657020">
        <ele>2583.000</ele>
        <time>2019-02-12T19:14:27Z</time>
        <name>WPT.535</name>
      </trkpt>
      <trkpt lat="35.856791170" lon="-106.498607760">
        <ele>2583.000</ele>
        <time>2019-02-12T19:14:32Z</time>
        <name>WPT.536</name>
      </trkpt>
      <trkpt lat="35.856799850" lon="-106.498563290">
        <ele>2583.000</ele>
        <time>2019-02-12T19:14:37Z</time>
        <name>WPT.537</name>
      </trkpt>
      <trkpt lat="35.856818160" lon="-106.498515810">
        <ele>2582.000</ele>
        <time>2019-02-12T19:14:43Z</time>
        <name>WPT.538</name>
      </trkpt>
      <trkpt lat="35.856847840" lon="-106.498483960">
        <ele>2583.000</ele>
        <time>2019-02-12T19:14:49Z</time>
        <name>WPT.539</name>
      </trkpt>
      <trkpt lat="35.856871610" lon="-106.498439780">
        <ele>2583.000</ele>
        <time>2019-02-12T19:14:54Z</time>
        <name>WPT.540</name>
      </trkpt>
      <trkpt lat="35.856893080" lon="-106.498399480">
        <ele>2583.000</ele>
        <time>2019-02-12T19:14:59Z</time>
        <name>WPT.541</name>
      </trkpt>
      <trkpt lat="35.856923990" lon="-106.498359460">
        <ele>2583.000</ele>
        <time>2019-02-12T19:15:04Z</time>
        <name>WPT.542</name>
      </trkpt>
      <trkpt lat="35.856945500" lon="-106.498312880">
        <ele>2583.000</ele>
        <time>2019-02-12T19:15:09Z</time>
        <name>WPT.543</name>
      </trkpt>
      <trkpt lat="35.856964420" lon="-106.498269380">
        <ele>2583.000</ele>
        <time>2019-02-12T19:15:14Z</time>
        <name>WPT.544</name>
      </trkpt>
      <trkpt lat="35.856987660" lon="-106.498226350">
        <ele>2583.000</ele>
        <time>2019-02-12T19:15:19Z</time>
        <name>WPT.545</name>
      </trkpt>
      <trkpt lat="35.857010980" lon="-106.498185170">
        <ele>2583.000</ele>
        <time>2019-02-12T19:15:24Z</time>
        <name>WPT.546</name>
      </trkpt>
      <trkpt lat="35.857031960" lon="-106.498149070">
        <ele>2583.000</ele>
        <time>2019-02-12T19:15:29Z</time>
        <name>WPT.547</name>
      </trkpt>
      <trkpt lat="35.857058320" lon="-106.498112650">
        <ele>2583.000</ele>
        <time>2019-02-12T19:15:56Z</time>
        <name>WPT.548</name>
      </trkpt>
      <trkpt lat="35.857084950" lon="-106.498076960">
        <ele>2583.000</ele>
        <time>2019-02-12T19:16:01Z</time>
        <name>WPT.549</name>
      </trkpt>
      <trkpt lat="35.857107780" lon="-106.498035720">
        <ele>2583.000</ele>
        <time>2019-02-12T19:16:06Z</time>
        <name>WPT.550</name>
      </trkpt>
      <trkpt lat="35.857135110" lon="-106.497999310">
        <ele>2583.000</ele>
        <time>2019-02-12T19:16:10Z</time>
        <name>WPT.551</name>
      </trkpt>
      <trkpt lat="35.857153430" lon="-106.497959250">
        <ele>2584.000</ele>
        <time>2019-02-12T19:16:15Z</time>
        <name>WPT.552</name>
      </trkpt>
      <trkpt lat="35.857183230" lon="-106.497926710">
        <ele>2584.000</ele>
        <time>2019-02-12T19:16:20Z</time>
        <name>WPT.553</name>
      </trkpt>
      <trkpt lat="35.857209500" lon="-106.497891930">
        <ele>2584.000</ele>
        <time>2019-02-12T19:16:25Z</time>
        <name>WPT.554</name>
      </trkpt>
      <trkpt lat="35.857232700" lon="-106.497849490">
        <ele>2584.000</ele>
        <time>2019-02-12T19:16:31Z</time>
        <name>WPT.555</name>
      </trkpt>
      <trkpt lat="35.857256510" lon="-106.497814540">
        <ele>2584.000</ele>
        <time>2019-02-12T19:16:35Z</time>
        <name>WPT.556</name>
      </trkpt>
      <trkpt lat="35.857284710" lon="-106.497773340">
        <ele>2583.000</ele>
        <time>2019-02-12T19:16:40Z</time>
        <name>WPT.557</name>
      </trkpt>
      <trkpt lat="35.857311640" lon="-106.497728560">
        <ele>2583.000</ele>
        <time>2019-02-12T19:16:45Z</time>
        <name>WPT.558</name>
      </trkpt>
      <trkpt lat="35.857324120" lon="-106.497685630">
        <ele>2583.000</ele>
        <time>2019-02-12T19:16:50Z</time>
        <name>WPT.559</name>
      </trkpt>
      <trkpt lat="35.857350770" lon="-106.497639820">
        <ele>2583.000</ele>
        <time>2019-02-12T19:16:55Z</time>
        <name>WPT.560</name>
      </trkpt>
      <trkpt lat="35.857365510" lon="-106.497596500">
        <ele>2583.000</ele>
        <time>2019-02-12T19:17:00Z</time>
        <name>WPT.561</name>
      </trkpt>
      <trkpt lat="35.857381400" lon="-106.497549570">
        <ele>2583.000</ele>
        <time>2019-02-12T19:17:05Z</time>
        <name>WPT.562</name>
      </trkpt>
      <trkpt lat="35.857398930" lon="-106.497505000">
        <ele>2582.000</ele>
        <time>2019-02-12T19:17:10Z</time>
        <name>WPT.563</name>
      </trkpt>
      <trkpt lat="35.857413910" lon="-106.497457040">
        <ele>2583.000</ele>
        <time>2019-02-12T19:17:15Z</time>
        <name>WPT.564</name>
      </trkpt>
      <trkpt lat="35.857435360" lon="-106.497414350">
        <ele>2582.000</ele>
        <time>2019-02-12T19:17:20Z</time>
        <name>WPT.565</name>
      </trkpt>
      <trkpt lat="35.857453170" lon="-106.497372850">
        <ele>2582.000</ele>
        <time>2019-02-12T19:17:26Z</time>
        <name>WPT.566</name>
      </trkpt>
      <trkpt lat="35.857468210" lon="-106.497329830">
        <ele>2582.000</ele>
        <time>2019-02-12T19:17:31Z</time>
        <name>WPT.567</name>
      </trkpt>
      <trkpt lat="35.857478330" lon="-106.497282610">
        <ele>2582.000</ele>
        <time>2019-02-12T19:17:35Z</time>
        <name>WPT.568</name>
      </trkpt>
      <trkpt lat="35.857487440" lon="-106.497232300">
        <ele>2583.000</ele>
        <time>2019-02-12T19:18:03Z</time>
        <name>WPT.569</name>
      </trkpt>
      <trkpt lat="35.857485850" lon="-106.497178970">
        <ele>2583.000</ele>
        <time>2019-02-12T19:18:08Z</time>
        <name>WPT.570</name>
      </trkpt>
      <trkpt lat="35.857480380" lon="-106.497129090">
        <ele>2583.000</ele>
        <time>2019-02-12T19:18:13Z</time>
        <name>WPT.571</name>
      </trkpt>
      <trkpt lat="35.857478660" lon="-106.497079550">
        <ele>2584.000</ele>
        <time>2019-02-12T19:18:19Z</time>
        <name>WPT.572</name>
      </trkpt>
      <trkpt lat="35.857474460" lon="-106.497027340">
        <ele>2585.000</ele>
        <time>2019-02-12T19:18:46Z</time>
        <name>WPT.573</name>
      </trkpt>
      <trkpt lat="35.857474310" lon="-106.496980820">
        <ele>2585.000</ele>
        <time>2019-02-12T19:18:51Z</time>
        <name>WPT.574</name>
      </trkpt>
      <trkpt lat="35.857474980" lon="-106.496933200">
        <ele>2585.000</ele>
        <time>2019-02-12T19:18:56Z</time>
        <name>WPT.575</name>
      </trkpt>
      <trkpt lat="35.857467680" lon="-106.496887680">
        <ele>2585.000</ele>
        <time>2019-02-12T19:19:01Z</time>
        <name>WPT.576</name>
      </trkpt>
      <trkpt lat="35.857456140" lon="-106.496841370">
        <ele>2586.000</ele>
        <time>2019-02-12T19:19:06Z</time>
        <name>WPT.577</name>
      </trkpt>
      <trkpt lat="35.857459570" lon="-106.496786540">
        <ele>2586.000</ele>
        <time>2019-02-12T19:19:11Z</time>
        <name>WPT.578</name>
      </trkpt>
      <trkpt lat="35.857461890" lon="-106.496736020">
        <ele>2586.000</ele>
        <time>2019-02-12T19:19:16Z</time>
        <name>WPT.579</name>
      </trkpt>
      <trkpt lat="35.857460900" lon="-106.496690880">
        <ele>2586.000</ele>
        <time>2019-02-12T19:19:20Z</time>
        <name>WPT.580</name>
      </trkpt>
      <trkpt lat="35.857457180" lon="-106.496640030">
        <ele>2585.000</ele>
        <time>2019-02-12T19:19:25Z</time>
        <name>WPT.581</name>
      </trkpt>
      <trkpt lat="35.857459510" lon="-106.496594440">
        <ele>2585.000</ele>
        <time>2019-02-12T19:19:29Z</time>
        <name>WPT.582</name>
      </trkpt>
      <trkpt lat="35.857455180" lon="-106.496542520">
        <ele>2585.000</ele>
        <time>2019-02-12T19:19:34Z</time>
        <name>WPT.583</name>
      </trkpt>
      <trkpt lat="35.857457890" lon="-106.496494750">
        <ele>2584.000</ele>
        <time>2019-02-12T19:19:39Z</time>
        <name>WPT.584</name>
      </trkpt>
      <trkpt lat="35.857460820" lon="-106.496450530">
        <ele>2585.000</ele>
        <time>2019-02-12T19:19:43Z</time>
        <name>WPT.585</name>
      </trkpt>
      <trkpt lat="35.857467120" lon="-106.496399710">
        <ele>2585.000</ele>
        <time>2019-02-12T19:19:48Z</time>
        <name>WPT.586</name>
      </trkpt>
      <trkpt lat="35.857452720" lon="-106.496356550">
        <ele>2586.000</ele>
        <time>2019-02-12T19:19:52Z</time>
        <name>WPT.587</name>
      </trkpt>
      <trkpt lat="35.857437790" lon="-106.496304820">
        <ele>2585.000</ele>
        <time>2019-02-12T19:20:07Z</time>
        <name>WPT.588</name>
      </trkpt>
      <trkpt lat="35.857445040" lon="-106.496253470">
        <ele>2585.000</ele>
        <time>2019-02-12T19:20:26Z</time>
        <name>WPT.589</name>
      </trkpt>
      <trkpt lat="35.857449880" lon="-106.496199370">
        <ele>2585.000</ele>
        <time>2019-02-12T19:20:31Z</time>
        <name>WPT.590</name>
      </trkpt>
      <trkpt lat="35.857454180" lon="-106.496152280">
        <ele>2586.000</ele>
        <time>2019-02-12T19:20:36Z</time>
        <name>WPT.591</name>
      </trkpt>
      <trkpt lat="35.857457260" lon="-106.496107930">
        <ele>2586.000</ele>
        <time>2019-02-12T19:20:40Z</time>
        <name>WPT.592</name>
      </trkpt>
      <trkpt lat="35.857448400" lon="-106.496060830">
        <ele>2586.000</ele>
        <time>2019-02-12T19:20:45Z</time>
        <name>WPT.593</name>
      </trkpt>
      <trkpt lat="35.857443780" lon="-106.496011680">
        <ele>2586.000</ele>
        <time>2019-02-12T19:20:50Z</time>
        <name>WPT.594</name>
      </trkpt>
      <trkpt lat="35.857432890" lon="-106.495959700">
        <ele>2586.000</ele>
        <time>2019-02-12T19:20:55Z</time>
        <name>WPT.595</name>
      </trkpt>
      <trkpt lat="35.857429860" lon="-106.495907530">
        <ele>2586.000</ele>
        <time>2019-02-12T19:21:00Z</time>
        <name>WPT.596</name>
      </trkpt>
      <trkpt lat="35.857423210" lon="-106.495858570">
        <ele>2586.000</ele>
        <time>2019-02-12T19:21:05Z</time>
        <name>WPT.597</name>
      </trkpt>
      <trkpt lat="35.857415030" lon="-106.495809630">
        <ele>2586.000</ele>
        <time>2019-02-12T19:21:10Z</time>
        <name>WPT.598</name>
      </trkpt>
      <trkpt lat="35.857415240" lon="-106.495760700">
        <ele>2587.000</ele>
        <time>2019-02-12T19:21:26Z</time>
        <name>WPT.599</name>
      </trkpt>
      <trkpt lat="35.857421210" lon="-106.495708030">
        <ele>2586.000</ele>
        <time>2019-02-12T19:21:31Z</time>
        <name>WPT.600</name>
      </trkpt>
      <trkpt lat="35.857422370" lon="-106.495662960">
        <ele>2587.000</ele>
        <time>2019-02-12T19:21:59Z</time>
        <name>WPT.601</name>
      </trkpt>
      <trkpt lat="35.857413140" lon="-106.495618140">
        <ele>2586.000</ele>
        <time>2019-02-12T19:22:04Z</time>
        <name>WPT.602</name>
      </trkpt>
      <trkpt lat="35.857401500" lon="-106.495572200">
        <ele>2586.000</ele>
        <time>2019-02-12T19:22:27Z</time>
        <name>WPT.603</name>
      </trkpt>
      <trkpt lat="35.857393770" lon="-106.495528270">
        <ele>2587.000</ele>
        <time>2019-02-12T19:22:31Z</time>
        <name>WPT.604</name>
      </trkpt>
      <trkpt lat="35.857393640" lon="-106.495483340">
        <ele>2587.000</ele>
        <time>2019-02-12T19:22:35Z</time>
        <name>WPT.605</name>
      </trkpt>
      <trkpt lat="35.857395620" lon="-106.495439000">
        <ele>2587.000</ele>
        <time>2019-02-12T19:22:39Z</time>
        <name>WPT.606</name>
      </trkpt>
      <trkpt lat="35.857395890" lon="-106.495386800">
        <ele>2587.000</ele>
        <time>2019-02-12T19:22:44Z</time>
        <name>WPT.607</name>
      </trkpt>
      <trkpt lat="35.857393380" lon="-106.495338460">
        <ele>2586.000</ele>
        <time>2019-02-12T19:22:48Z</time>
        <name>WPT.608</name>
      </trkpt>
      <trkpt lat="35.857385210" lon="-106.495291450">
        <ele>2587.000</ele>
        <time>2019-02-12T19:22:52Z</time>
        <name>WPT.609</name>
      </trkpt>
      <trkpt lat="35.857385450" lon="-106.495246830">
        <ele>2587.000</ele>
        <time>2019-02-12T19:22:56Z</time>
        <name>WPT.610</name>
      </trkpt>
      <trkpt lat="35.857380700" lon="-106.495199500">
        <ele>2587.000</ele>
        <time>2019-02-12T19:23:01Z</time>
        <name>WPT.611</name>
      </trkpt>
      <trkpt lat="35.857374780" lon="-106.495150700">
        <ele>2586.000</ele>
        <time>2019-02-12T19:23:06Z</time>
        <name>WPT.612</name>
      </trkpt>
      <trkpt lat="35.857366320" lon="-106.495103020">
        <ele>2586.000</ele>
        <time>2019-02-12T19:23:11Z</time>
        <name>WPT.613</name>
      </trkpt>
      <trkpt lat="35.857361540" lon="-106.495050600">
        <ele>2586.000</ele>
        <time>2019-02-12T19:23:16Z</time>
        <name>WPT.614</name>
      </trkpt>
      <trkpt lat="35.857349620" lon="-106.494995300">
        <ele>2586.000</ele>
        <time>2019-02-12T19:23:21Z</time>
        <name>WPT.615</name>
      </trkpt>
      <trkpt lat="35.857352880" lon="-106.494950860">
        <ele>2586.000</ele>
        <time>2019-02-12T19:23:25Z</time>
        <name>WPT.616</name>
      </trkpt>
      <trkpt lat="35.857347930" lon="-106.494901790">
        <ele>2585.000</ele>
        <time>2019-02-12T19:23:30Z</time>
        <name>WPT.617</name>
      </trkpt>
      <trkpt lat="35.857348110" lon="-106.494849860">
        <ele>2585.000</ele>
        <time>2019-02-12T19:23:35Z</time>
        <name>WPT.618</name>
      </trkpt>
      <trkpt lat="35.857346870" lon="-106.494801410">
        <ele>2585.000</ele>
        <time>2019-02-12T19:23:40Z</time>
        <name>WPT.619</name>
      </trkpt>
      <trkpt lat="35.857347460" lon="-106.494746700">
        <ele>2584.000</ele>
        <time>2019-02-12T19:23:45Z</time>
        <name>WPT.620</name>
      </trkpt>
      <trkpt lat="35.857341240" lon="-106.494701440">
        <ele>2585.000</ele>
        <time>2019-02-12T19:23:49Z</time>
        <name>WPT.621</name>
      </trkpt>
      <trkpt lat="35.857327370" lon="-106.494657330">
        <ele>2585.000</ele>
        <time>2019-02-12T19:23:54Z</time>
        <name>WPT.622</name>
      </trkpt>
      <trkpt lat="35.857317480" lon="-106.494609100">
        <ele>2585.000</ele>
        <time>2019-02-12T19:23:59Z</time>
        <name>WPT.623</name>
      </trkpt>
      <trkpt lat="35.857303380" lon="-106.494558190">
        <ele>2584.000</ele>
        <time>2019-02-12T19:24:04Z</time>
        <name>WPT.624</name>
      </trkpt>
      <trkpt lat="35.857298580" lon="-106.494512890">
        <ele>2584.000</ele>
        <time>2019-02-12T19:24:09Z</time>
        <name>WPT.625</name>
      </trkpt>
      <trkpt lat="35.857295990" lon="-106.494468590">
        <ele>2584.000</ele>
        <time>2019-02-12T19:24:13Z</time>
        <name>WPT.626</name>
      </trkpt>
      <trkpt lat="35.857283990" lon="-106.494426580">
        <ele>2584.000</ele>
        <time>2019-02-12T19:24:20Z</time>
        <name>WPT.627</name>
      </trkpt>
      <trkpt lat="35.857271020" lon="-106.494385250">
        <ele>2583.000</ele>
        <time>2019-02-12T19:24:24Z</time>
        <name>WPT.628</name>
      </trkpt>
      <trkpt lat="35.857265410" lon="-106.494334870">
        <ele>2583.000</ele>
        <time>2019-02-12T19:24:29Z</time>
        <name>WPT.629</name>
      </trkpt>
      <trkpt lat="35.857257020" lon="-106.494290080">
        <ele>2584.000</ele>
        <time>2019-02-12T19:24:34Z</time>
        <name>WPT.630</name>
      </trkpt>
      <trkpt lat="35.857253660" lon="-106.494238980">
        <ele>2584.000</ele>
        <time>2019-02-12T19:24:39Z</time>
        <name>WPT.631</name>
      </trkpt>
      <trkpt lat="35.857239870" lon="-106.494188300">
        <ele>2585.000</ele>
        <time>2019-02-12T19:24:44Z</time>
        <name>WPT.632</name>
      </trkpt>
      <trkpt lat="35.857225700" lon="-106.494147160">
        <ele>2585.000</ele>
        <time>2019-02-12T19:24:48Z</time>
        <name>WPT.633</name>
      </trkpt>
      <trkpt lat="35.857218210" lon="-106.494099620">
        <ele>2585.000</ele>
        <time>2019-02-12T19:24:53Z</time>
        <name>WPT.634</name>
      </trkpt>
      <trkpt lat="35.857204670" lon="-106.494054610">
        <ele>2586.000</ele>
        <time>2019-02-12T19:24:58Z</time>
        <name>WPT.635</name>
      </trkpt>
      <trkpt lat="35.857192360" lon="-106.494012570">
        <ele>2585.000</ele>
        <time>2019-02-12T19:25:02Z</time>
        <name>WPT.636</name>
      </trkpt>
      <trkpt lat="35.857180450" lon="-106.493964680">
        <ele>2585.000</ele>
        <time>2019-02-12T19:25:07Z</time>
        <name>WPT.637</name>
      </trkpt>
      <trkpt lat="35.857172720" lon="-106.493915060">
        <ele>2585.000</ele>
        <time>2019-02-12T19:25:12Z</time>
        <name>WPT.638</name>
      </trkpt>
      <trkpt lat="35.857157870" lon="-106.493872840">
        <ele>2585.000</ele>
        <time>2019-02-12T19:25:17Z</time>
        <name>WPT.639</name>
      </trkpt>
      <trkpt lat="35.857152060" lon="-106.493825450">
        <ele>2586.000</ele>
        <time>2019-02-12T19:25:22Z</time>
        <name>WPT.640</name>
      </trkpt>
      <trkpt lat="35.857142210" lon="-106.493776820">
        <ele>2585.000</ele>
        <time>2019-02-12T19:25:27Z</time>
        <name>WPT.641</name>
      </trkpt>
      <trkpt lat="35.857125000" lon="-106.493726050">
        <ele>2585.000</ele>
        <time>2019-02-12T19:25:32Z</time>
        <name>WPT.642</name>
      </trkpt>
      <trkpt lat="35.857112890" lon="-106.493683640">
        <ele>2585.000</ele>
        <time>2019-02-12T19:25:37Z</time>
        <name>WPT.643</name>
      </trkpt>
      <trkpt lat="35.857096870" lon="-106.493636640">
        <ele>2585.000</ele>
        <time>2019-02-12T19:25:42Z</time>
        <name>WPT.644</name>
      </trkpt>
      <trkpt lat="35.857081840" lon="-106.493593690">
        <ele>2585.000</ele>
        <time>2019-02-12T19:25:46Z</time>
        <name>WPT.645</name>
      </trkpt>
      <trkpt lat="35.857079030" lon="-106.493548610">
        <ele>2585.000</ele>
        <time>2019-02-12T19:25:50Z</time>
        <name>WPT.646</name>
      </trkpt>
      <trkpt lat="35.857069740" lon="-106.493500630">
        <ele>2585.000</ele>
        <time>2019-02-12T19:25:55Z</time>
        <name>WPT.647</name>
      </trkpt>
      <trkpt lat="35.857052990" lon="-106.493452830">
        <ele>2584.000</ele>
        <time>2019-02-12T19:26:00Z</time>
        <name>WPT.648</name>
      </trkpt>
      <trkpt lat="35.857040810" lon="-106.493408220">
        <ele>2583.000</ele>
        <time>2019-02-12T19:26:04Z</time>
        <name>WPT.649</name>
      </trkpt>
      <trkpt lat="35.857026850" lon="-106.493355280">
        <ele>2583.000</ele>
        <time>2019-02-12T19:26:09Z</time>
        <name>WPT.650</name>
      </trkpt>
      <trkpt lat="35.857012320" lon="-106.493310210">
        <ele>2583.000</ele>
        <time>2019-02-12T19:26:13Z</time>
        <name>WPT.651</name>
      </trkpt>
      <trkpt lat="35.856995420" lon="-106.493265270">
        <ele>2582.000</ele>
        <time>2019-02-12T19:26:18Z</time>
        <name>WPT.652</name>
      </trkpt>
      <trkpt lat="35.856976860" lon="-106.493220590">
        <ele>2582.000</ele>
        <time>2019-02-12T19:26:23Z</time>
        <name>WPT.653</name>
      </trkpt>
      <trkpt lat="35.856967220" lon="-106.493173180">
        <ele>2581.000</ele>
        <time>2019-02-12T19:26:28Z</time>
        <name>WPT.654</name>
      </trkpt>
      <trkpt lat="35.856962220" lon="-106.493121250">
        <ele>2581.000</ele>
        <time>2019-02-12T19:26:33Z</time>
        <name>WPT.655</name>
      </trkpt>
      <trkpt lat="35.856950600" lon="-106.493079080">
        <ele>2582.000</ele>
        <time>2019-02-12T19:26:37Z</time>
        <name>WPT.656</name>
      </trkpt>
      <trkpt lat="35.856943230" lon="-106.493034330">
        <ele>2582.000</ele>
        <time>2019-02-12T19:26:41Z</time>
        <name>WPT.657</name>
      </trkpt>
      <trkpt lat="35.856932190" lon="-106.492991770">
        <ele>2582.000</ele>
        <time>2019-02-12T19:26:45Z</time>
        <name>WPT.658</name>
      </trkpt>
      <trkpt lat="35.856916880" lon="-106.492942640">
        <ele>2581.000</ele>
        <time>2019-02-12T19:26:50Z</time>
        <name>WPT.659</name>
      </trkpt>
      <trkpt lat="35.856905170" lon="-106.492897410">
        <ele>2581.000</ele>
        <time>2019-02-12T19:26:55Z</time>
        <name>WPT.660</name>
      </trkpt>
      <trkpt lat="35.856896100" lon="-106.492853350">
        <ele>2581.000</ele>
        <time>2019-02-12T19:26:59Z</time>
        <name>WPT.661</name>
      </trkpt>
      <trkpt lat="35.856887540" lon="-106.492809550">
        <ele>2581.000</ele>
        <time>2019-02-12T19:27:03Z</time>
        <name>WPT.662</name>
      </trkpt>
      <trkpt lat="35.856877170" lon="-106.492764500">
        <ele>2582.000</ele>
        <time>2019-02-12T19:27:08Z</time>
        <name>WPT.663</name>
      </trkpt>
      <trkpt lat="35.856869790" lon="-106.492720010">
        <ele>2581.000</ele>
        <time>2019-02-12T19:27:12Z</time>
        <name>WPT.664</name>
      </trkpt>
      <trkpt lat="35.856863470" lon="-106.492672870">
        <ele>2581.000</ele>
        <time>2019-02-12T19:27:17Z</time>
        <name>WPT.665</name>
      </trkpt>
      <trkpt lat="35.856851060" lon="-106.492628270">
        <ele>2581.000</ele>
        <time>2019-02-12T19:27:21Z</time>
        <name>WPT.666</name>
      </trkpt>
      <trkpt lat="35.856837190" lon="-106.492587100">
        <ele>2581.000</ele>
        <time>2019-02-12T19:27:25Z</time>
        <name>WPT.667</name>
      </trkpt>
      <trkpt lat="35.856829500" lon="-106.492536360">
        <ele>2581.000</ele>
        <time>2019-02-12T19:27:30Z</time>
        <name>WPT.668</name>
      </trkpt>
      <trkpt lat="35.856822170" lon="-106.492482880">
        <ele>2582.000</ele>
        <time>2019-02-12T19:27:35Z</time>
        <name>WPT.669</name>
      </trkpt>
      <trkpt lat="35.856813020" lon="-106.492432510">
        <ele>2582.000</ele>
        <time>2019-02-12T19:27:40Z</time>
        <name>WPT.670</name>
      </trkpt>
      <trkpt lat="35.856808770" lon="-106.492382430">
        <ele>2582.000</ele>
        <time>2019-02-12T19:27:45Z</time>
        <name>WPT.671</name>
      </trkpt>
      <trkpt lat="35.856803940" lon="-106.492328310">
        <ele>2582.000</ele>
        <time>2019-02-12T19:27:50Z</time>
        <name>WPT.672</name>
      </trkpt>
      <trkpt lat="35.856790550" lon="-106.492287150">
        <ele>2582.000</ele>
        <time>2019-02-12T19:27:54Z</time>
        <name>WPT.673</name>
      </trkpt>
      <trkpt lat="35.856778740" lon="-106.492237890">
        <ele>2581.000</ele>
        <time>2019-02-12T19:27:59Z</time>
        <name>WPT.674</name>
      </trkpt>
      <trkpt lat="35.856765140" lon="-106.492196650">
        <ele>2581.000</ele>
        <time>2019-02-12T19:28:09Z</time>
        <name>WPT.675</name>
      </trkpt>
      <trkpt lat="35.856757390" lon="-106.492145600">
        <ele>2581.000</ele>
        <time>2019-02-12T19:28:16Z</time>
        <name>WPT.676</name>
      </trkpt>
      <trkpt lat="35.856752070" lon="-106.492096240">
        <ele>2580.000</ele>
        <time>2019-02-12T19:28:21Z</time>
        <name>WPT.677</name>
      </trkpt>
      <trkpt lat="35.856741040" lon="-106.492047950">
        <ele>2580.000</ele>
        <time>2019-02-12T19:28:26Z</time>
        <name>WPT.678</name>
      </trkpt>
      <trkpt lat="35.856728710" lon="-106.492005820">
        <ele>2581.000</ele>
        <time>2019-02-12T19:28:37Z</time>
        <name>WPT.679</name>
      </trkpt>
      <trkpt lat="35.856706760" lon="-106.491960940">
        <ele>2580.000</ele>
        <time>2019-02-12T19:28:43Z</time>
        <name>WPT.680</name>
      </trkpt>
      <trkpt lat="35.856690100" lon="-106.491912630">
        <ele>2580.000</ele>
        <time>2019-02-12T19:28:48Z</time>
        <name>WPT.681</name>
      </trkpt>
      <trkpt lat="35.856672170" lon="-106.491870590">
        <ele>2580.000</ele>
        <time>2019-02-12T19:28:52Z</time>
        <name>WPT.682</name>
      </trkpt>
      <trkpt lat="35.856662650" lon="-106.491817420">
        <ele>2580.000</ele>
        <time>2019-02-12T19:28:58Z</time>
        <name>WPT.683</name>
      </trkpt>
      <trkpt lat="35.856657470" lon="-106.491772420">
        <ele>2580.000</ele>
        <time>2019-02-12T19:29:02Z</time>
        <name>WPT.684</name>
      </trkpt>
      <trkpt lat="35.856648010" lon="-106.491729680">
        <ele>2580.000</ele>
        <time>2019-02-12T19:29:06Z</time>
        <name>WPT.685</name>
      </trkpt>
      <trkpt lat="35.856641260" lon="-106.491675900">
        <ele>2579.000</ele>
        <time>2019-02-12T19:29:12Z</time>
        <name>WPT.686</name>
      </trkpt>
      <trkpt lat="35.856629390" lon="-106.491624850">
        <ele>2579.000</ele>
        <time>2019-02-12T19:29:17Z</time>
        <name>WPT.687</name>
      </trkpt>
      <trkpt lat="35.856611600" lon="-106.491580540">
        <ele>2579.000</ele>
        <time>2019-02-12T19:29:22Z</time>
        <name>WPT.688</name>
      </trkpt>
      <trkpt lat="35.856600610" lon="-106.491528980">
        <ele>2579.000</ele>
        <time>2019-02-12T19:29:27Z</time>
        <name>WPT.689</name>
      </trkpt>
      <trkpt lat="35.856584550" lon="-106.491483760">
        <ele>2579.000</ele>
        <time>2019-02-12T19:29:31Z</time>
        <name>WPT.690</name>
      </trkpt>
      <trkpt lat="35.856571000" lon="-106.491433030">
        <ele>2579.000</ele>
        <time>2019-02-12T19:29:36Z</time>
        <name>WPT.691</name>
      </trkpt>
      <trkpt lat="35.856559060" lon="-106.491390150">
        <ele>2579.000</ele>
        <time>2019-02-12T19:29:40Z</time>
        <name>WPT.692</name>
      </trkpt>
      <trkpt lat="35.856537340" lon="-106.491342310">
        <ele>2579.000</ele>
        <time>2019-02-12T19:29:45Z</time>
        <name>WPT.693</name>
      </trkpt>
      <trkpt lat="35.856531040" lon="-106.491296580">
        <ele>2579.000</ele>
        <time>2019-02-12T19:29:50Z</time>
        <name>WPT.694</name>
      </trkpt>
      <trkpt lat="35.856517820" lon="-106.491252440">
        <ele>2579.000</ele>
        <time>2019-02-12T19:30:09Z</time>
        <name>WPT.695</name>
      </trkpt>
      <trkpt lat="35.856507880" lon="-106.491199760">
        <ele>2579.000</ele>
        <time>2019-02-12T19:30:16Z</time>
        <name>WPT.696</name>
      </trkpt>
      <trkpt lat="35.856494850" lon="-106.491153150">
        <ele>2579.000</ele>
        <time>2019-02-12T19:30:21Z</time>
        <name>WPT.697</name>
      </trkpt>
      <trkpt lat="35.856474820" lon="-106.491109020">
        <ele>2579.000</ele>
        <time>2019-02-12T19:30:26Z</time>
        <name>WPT.698</name>
      </trkpt>
      <trkpt lat="35.856469920" lon="-106.491062880">
        <ele>2579.000</ele>
        <time>2019-02-12T19:30:31Z</time>
        <name>WPT.699</name>
      </trkpt>
      <trkpt lat="35.856505670" lon="-106.491071640">
        <ele>2580.000</ele>
        <time>2019-02-12T19:30:39Z</time>
        <name>WPT.700</name>
      </trkpt>
      <trkpt lat="35.856543430" lon="-106.491068620">
        <ele>2580.000</ele>
        <time>2019-02-12T19:30:44Z</time>
        <name>WPT.701</name>
      </trkpt>
      <trkpt lat="35.856582040" lon="-106.491047060">
        <ele>2581.000</ele>
        <time>2019-02-12T19:30:58Z</time>
        <name>WPT.702</name>
      </trkpt>
      <trkpt lat="35.856614380" lon="-106.491020230">
        <ele>2581.000</ele>
        <time>2019-02-12T19:31:03Z</time>
        <name>WPT.703</name>
      </trkpt>
      <trkpt lat="35.856643850" lon="-106.490991150">
        <ele>2582.000</ele>
        <time>2019-02-12T19:31:08Z</time>
        <name>WPT.704</name>
      </trkpt>
      <trkpt lat="35.856681210" lon="-106.490985340">
        <ele>2582.000</ele>
        <time>2019-02-12T19:31:14Z</time>
        <name>WPT.705</name>
      </trkpt>
      <trkpt lat="35.856722330" lon="-106.490992930">
        <ele>2583.000</ele>
        <time>2019-02-12T19:31:20Z</time>
        <name>WPT.706</name>
      </trkpt>
      <trkpt lat="35.856755560" lon="-106.491021410">
        <ele>2584.000</ele>
        <time>2019-02-12T19:31:25Z</time>
        <name>WPT.707</name>
      </trkpt>
      <trkpt lat="35.856792810" lon="-106.491031560">
        <ele>2583.000</ele>
        <time>2019-02-12T19:31:33Z</time>
        <name>WPT.708</name>
      </trkpt>
      <trkpt lat="35.856823220" lon="-106.491006550">
        <ele>2583.000</ele>
        <time>2019-02-12T19:31:37Z</time>
        <name>WPT.709</name>
      </trkpt>
      <trkpt lat="35.856863210" lon="-106.491000950">
        <ele>2583.000</ele>
        <time>2019-02-12T19:31:43Z</time>
        <name>WPT.710</name>
      </trkpt>
      <trkpt lat="35.856898120" lon="-106.491018540">
        <ele>2584.000</ele>
        <time>2019-02-12T19:31:48Z</time>
        <name>WPT.711</name>
      </trkpt>
      <trkpt lat="35.856927240" lon="-106.490983830">
        <ele>2582.000</ele>
        <time>2019-02-12T19:32:05Z</time>
        <name>WPT.712</name>
      </trkpt>
      <trkpt lat="35.856894180" lon="-106.491005950">
        <ele>2582.000</ele>
        <time>2019-02-12T19:32:24Z</time>
        <name>WPT.713</name>
      </trkpt>
      <trkpt lat="35.856912370" lon="-106.491047070">
        <ele>2582.000</ele>
        <time>2019-02-12T19:33:51Z</time>
        <name>WPT.714</name>
      </trkpt>
      <trkpt lat="35.856952500" lon="-106.491033830">
        <ele>2582.000</ele>
        <time>2019-02-12T19:33:58Z</time>
        <name>WPT.715</name>
      </trkpt>
      <trkpt lat="35.856966090" lon="-106.490991220">
        <ele>2582.000</ele>
        <time>2019-02-12T19:34:03Z</time>
        <name>WPT.716</name>
      </trkpt>
      <trkpt lat="35.856954350" lon="-106.490947800">
        <ele>2582.000</ele>
        <time>2019-02-12T19:34:24Z</time>
        <name>WPT.717</name>
      </trkpt>
      <trkpt lat="35.856912640" lon="-106.490961540">
        <ele>2583.000</ele>
        <time>2019-02-12T19:34:49Z</time>
        <name>WPT.718</name>
      </trkpt>
      <trkpt lat="35.856946580" lon="-106.490984430">
        <ele>2583.000</ele>
        <time>2019-02-12T19:35:59Z</time>
        <name>WPT.719</name>
      </trkpt>
      <trkpt lat="35.856980780" lon="-106.490969700">
        <ele>2583.000</ele>
        <time>2019-02-12T19:36:04Z</time>
        <name>WPT.720</name>
      </trkpt>
      <trkpt lat="35.857016870" lon="-106.490948610">
        <ele>2583.000</ele>
        <time>2019-02-12T19:36:10Z</time>
        <name>WPT.721</name>
      </trkpt>
      <trkpt lat="35.857046420" lon="-106.490914600">
        <ele>2583.000</ele>
        <time>2019-02-12T19:36:34Z</time>
        <name>WPT.722</name>
      </trkpt>
      <trkpt lat="35.857006750" lon="-106.490922290">
        <ele>2581.000</ele>
        <time>2019-02-12T19:38:24Z</time>
        <name>WPT.723</name>
      </trkpt>
      <trkpt lat="35.856972610" lon="-106.490938840">
        <ele>2582.000</ele>
        <time>2019-02-12T19:38:28Z</time>
        <name>WPT.724</name>
      </trkpt>
      <trkpt lat="35.856940030" lon="-106.490957980">
        <ele>2583.000</ele>
        <time>2019-02-12T19:38:33Z</time>
        <name>WPT.725</name>
      </trkpt>
      <trkpt lat="35.856912900" lon="-106.490988040">
        <ele>2584.000</ele>
        <time>2019-02-12T19:38:55Z</time>
        <name>WPT.726</name>
      </trkpt>
      <trkpt lat="35.856879650" lon="-106.491020040">
        <ele>2584.000</ele>
        <time>2019-02-12T19:40:00Z</time>
        <name>WPT.727</name>
      </trkpt>
      <trkpt lat="35.856844910" lon="-106.491040460">
        <ele>2584.000</ele>
        <time>2019-02-12T19:40:20Z</time>
        <name>WPT.728</name>
      </trkpt>
      <trkpt lat="35.856805360" lon="-106.491054770">
        <ele>2584.000</ele>
        <time>2019-02-12T19:40:26Z</time>
        <name>WPT.729</name>
      </trkpt>
      <trkpt lat="35.856769020" lon="-106.491066240">
        <ele>2584.000</ele>
        <time>2019-02-12T19:40:31Z</time>
        <name>WPT.730</name>
      </trkpt>
      <trkpt lat="35.856732080" lon="-106.491079730">
        <ele>2584.000</ele>
        <time>2019-02-12T19:40:36Z</time>
        <name>WPT.731</name>
      </trkpt>
      <trkpt lat="35.856714990" lon="-106.491119840">
        <ele>2584.000</ele>
        <time>2019-02-12T19:40:46Z</time>
        <name>WPT.732</name>
      </trkpt>
      <trkpt lat="35.856696430" lon="-106.491159950">
        <ele>2582.000</ele>
        <time>2019-02-12T19:41:04Z</time>
        <name>WPT.733</name>
      </trkpt>
      <trkpt lat="35.856663610" lon="-106.491139220">
        <ele>2581.000</ele>
        <time>2019-02-12T19:41:33Z</time>
        <name>WPT.734</name>
      </trkpt>
      <trkpt lat="35.856674810" lon="-106.491153090">
        <ele>2582.000</ele>
        <time>2019-02-12T19:44:17Z</time>
        <name>WPT.735</name>
      </trkpt>
    </trkseg>
  </trk>
</gpx>
